| time (UTC) | temp F | wind direction | speed MPH | gust MPH | rain 1hr in | rain 24hr in | rain mn in | humidity % | barometer mb |
| 20260505171104 | 79 | 178 | 6.0 | 22.0 | 0.00 | 0.00 | 0.00 | 37 | 1006.6 |
| 20260505171004 | 79 | 178 | 6.0 | 22.0 | 0.00 | 0.00 | 0.00 | 36 | 1006.6 |
| 20260505170904 | 79 | 178 | 6.0 | 22.0 | 0.00 | 0.00 | 0.00 | 37 | 1006.6 |
| 20260505170804 | 79 | 177 | 5.0 | 22.0 | 0.00 | 0.00 | 0.00 | 37 | 1006.6 |
| 20260505170704 | 79 | 177 | 5.0 | 22.0 | 0.00 | 0.00 | 0.00 | 37 | 1006.6 |
| 20260505170604 | 78 | 176 | 5.0 | 22.0 | 0.00 | 0.00 | 0.00 | 36 | 1006.6 |
| 20260505170504 | 79 | 176 | 4.0 | 16.0 | 0.00 | 0.00 | 0.00 | 36 | 1006.7 |
| 20260505170404 | 79 | 176 | 3.0 | 16.0 | 0.00 | 0.00 | 0.00 | 36 | 1006.7 |
| 20260505170304 | 79 | 176 | 3.0 | 16.0 | 0.00 | 0.00 | 0.00 | 37 | 1006.7 |
| 20260505170204 | 78 | 175 | 3.0 | 14.0 | 0.00 | 0.00 | 0.00 | 37 | 1006.8 |
| 20260505170104 | 78 | 175 | 4.0 | 14.0 | 0.00 | 0.00 | 0.00 | 36 | 1006.8 |
| 20260505170004 | 79 | 174 | 5.0 | 18.0 | 0.00 | 0.00 | 0.00 | 36 | 1006.8 |
| 20260505165904 | 79 | 175 | 6.0 | 18.0 | 0.00 | 0.00 | 0.00 | 36 | 1006.8 |
| 20260505165804 | 79 | 176 | 6.0 | 18.0 | 0.00 | 0.00 | 0.00 | 36 | 1006.8 |
| 20260505165704 | 79 | 176 | 7.0 | 18.0 | 0.00 | 0.00 | 0.00 | 36 | 1006.8 |
| 20260505165604 | 78 | 177 | 7.0 | 18.0 | 0.00 | 0.00 | 0.00 | 36 | 1006.8 |
| 20260505165504 | 78 | 177 | 7.0 | 18.0 | 0.00 | 0.00 | 0.00 | 37 | 1006.8 |
| 20260505165404 | 78 | 177 | 7.0 | 18.0 | 0.00 | 0.00 | 0.00 | 37 | 1006.8 |
| 20260505165306 | 78 | 176 | 7.0 | 18.0 | 0.00 | 0.00 | 0.00 | 36 | 1006.8 |
| 20260505165204 | 78 | 176 | 7.0 | 18.0 | 0.00 | 0.00 | 0.00 | 36 | 1006.8 |
| 20260505165104 | 78 | 176 | 6.0 | 18.0 | 0.00 | 0.00 | 0.00 | 36 | 1006.9 |
| 20260505165004 | 78 | 176 | 5.0 | 17.0 | 0.00 | 0.00 | 0.00 | 36 | 1006.9 |
| 20260505164904 | 78 | 175 | 4.0 | 17.0 | 0.00 | 0.00 | 0.00 | 36 | 1006.9 |
| 20260505164804 | 78 | 175 | 4.0 | 17.0 | 0.00 | 0.00 | 0.00 | 36 | 1007.0 |
| 20260505164704 | 78 | 174 | 3.0 | 17.0 | 0.00 | 0.00 | 0.00 | 36 | 1007.0 |
| 20260505164604 | 78 | 173 | 2.0 | 11.0 | 0.00 | 0.00 | 0.00 | 36 | 1007.0 |
| 20260505164504 | 78 | 171 | 3.0 | 13.0 | 0.00 | 0.00 | 0.00 | 36 | 1007.1 |
| 20260505164404 | 78 | 170 | 2.0 | 13.0 | 0.00 | 0.00 | 0.00 | 36 | 1007.1 |
| 20260505164304 | 78 | 167 | 2.0 | 13.0 | 0.00 | 0.00 | 0.00 | 36 | 1007.0 |
| 20260505164204 | 78 | 165 | 2.0 | 13.0 | 0.00 | 0.00 | 0.00 | 36 | 1007.0 |
| 20260505164104 | 78 | 166 | 3.0 | 13.0 | 0.00 | 0.00 | 0.00 | 35 | 1007.0 |
| 20260505164004 | 78 | 170 | 4.0 | 17.0 | 0.00 | 0.00 | 0.00 | 36 | 1007.0 |
| 20260505163904 | 78 | 169 | 4.0 | 17.0 | 0.00 | 0.00 | 0.00 | 36 | 1007.0 |
| 20260505163804 | 78 | 169 | 4.0 | 17.0 | 0.00 | 0.00 | 0.00 | 36 | 1007.1 |
| 20260505163704 | 78 | 168 | 5.0 | 17.0 | 0.00 | 0.00 | 0.00 | 36 | 1007.1 |
| 20260505163604 | 78 | 167 | 5.0 | 17.0 | 0.00 | 0.00 | 0.00 | 35 | 1007.1 |
| 20260505163504 | 77 | 167 | 5.0 | 17.0 | 0.00 | 0.00 | 0.00 | 36 | 1007.2 |
| 20260505163404 | 77 | 167 | 5.0 | 17.0 | 0.00 | 0.00 | 0.00 | 36 | 1007.2 |
| 20260505163304 | 77 | 168 | 5.0 | 17.0 | 0.00 | 0.00 | 0.00 | 36 | 1007.2 |
| 20260505163204 | 77 | 168 | 5.0 | 17.0 | 0.00 | 0.00 | 0.00 | 35 | 1007.3 |
| 20260505163104 | 77 | 168 | 5.0 | 17.0 | 0.00 | 0.00 | 0.00 | 35 | 1007.3 |
| 20260505163004 | 77 | 166 | 4.0 | 15.0 | 0.00 | 0.00 | 0.00 | 35 | 1007.3 |
| 20260505162904 | 77 | 167 | 4.0 | 15.0 | 0.00 | 0.00 | 0.00 | 35 | 1007.3 |
| 20260505162804 | 77 | 167 | 4.0 | 15.0 | 0.00 | 0.00 | 0.00 | 35 | 1007.3 |
| 20260505162704 | 77 | 168 | 3.0 | 13.0 | 0.00 | 0.00 | 0.00 | 35 | 1007.4 |
| 20260505162604 | 77 | 170 | 3.0 | 13.0 | 0.00 | 0.00 | 0.00 | 35 | 1007.4 |
| 20260505162504 | 77 | 171 | 2.0 | 13.0 | 0.00 | 0.00 | 0.00 | 35 | 1007.4 |
| 20260505162404 | 77 | 172 | 2.0 | 10.0 | 0.00 | 0.00 | 0.00 | 35 | 1007.4 |
| 20260505162306 | 77 | 172 | 1.0 | 10.0 | 0.00 | 0.00 | 0.00 | 35 | 1007.4 |
| 20260505162204 | 77 | 173 | 2.0 | 12.0 | 0.00 | 0.00 | 0.00 | 35 | 1007.5 |
| 20260505162125 | 77 | 174 | 2.0 | 14.0 | 0.00 | 0.00 | 0.00 | 35 | 1007.5 |
| 20260505162025 | 77 | 175 | 3.0 | 14.0 | 0.00 | 0.00 | 0.00 | 35 | 1007.5 |
| 20260505161925 | 77 | 175 | 3.0 | 15.0 | 0.00 | 0.00 | 0.00 | 35 | 1007.5 |
| 20260505161825 | 77 | 175 | 3.0 | 15.0 | 0.00 | 0.00 | 0.00 | 35 | 1007.6 |
| 20260505161725 | 77 | 175 | 3.0 | 15.0 | 0.00 | 0.00 | 0.00 | 35 | 1007.6 |
| 20260505161625 | 76 | 175 | 4.0 | 16.0 | 0.00 | 0.00 | 0.00 | 34 | 1007.7 |
| 20260505161525 | 76 | 175 | 4.0 | 16.0 | 0.00 | 0.00 | 0.00 | 35 | 1007.7 |
| 20260505161425 | 76 | 174 | 5.0 | 16.0 | 0.00 | 0.00 | 0.00 | 35 | 1007.7 |
| 20260505161325 | 76 | 174 | 6.0 | 16.0 | 0.00 | 0.00 | 0.00 | 35 | 1007.8 |
| 20260505161225 | 76 | 174 | 5.0 | 16.0 | 0.00 | 0.00 | 0.00 | 34 | 1007.8 |
| 20260505161104 | 76 | 173 | 5.0 | 16.0 | 0.00 | 0.00 | 0.00 | 34 | 1007.8 |
| 20260505161004 | 76 | 173 | 5.0 | 16.0 | 0.00 | 0.00 | 0.00 | 34 | 1007.8 |
| 20260505160904 | 76 | 173 | 5.0 | 16.0 | 0.00 | 0.00 | 0.00 | 35 | 1007.8 |
| 20260505160804 | 76 | 173 | 5.0 | 16.0 | 0.00 | 0.00 | 0.00 | 35 | 1007.8 |
| 20260505160704 | 76 | 172 | 5.0 | 16.0 | 0.00 | 0.00 | 0.00 | 34 | 1007.8 |
| 20260505160604 | 76 | 172 | 5.0 | 13.0 | 0.00 | 0.00 | 0.00 | 34 | 1007.8 |
| 20260505160504 | 76 | 172 | 4.0 | 13.0 | 0.00 | 0.00 | 0.00 | 34 | 1007.9 |
| 20260505160404 | 76 | 172 | 4.0 | 16.0 | 0.00 | 0.00 | 0.00 | 34 | 1007.9 |
| 20260505160304 | 76 | 172 | 5.0 | 16.0 | 0.00 | 0.00 | 0.00 | 34 | 1007.9 |
| 20260505160204 | 76 | 172 | 5.0 | 16.0 | 0.00 | 0.00 | 0.00 | 34 | 1007.8 |
| 20260505160104 | 76 | 171 | 5.0 | 16.0 | 0.00 | 0.00 | 0.00 | 34 | 1007.8 |
| 20260505153304 | 58 | 0 | 0.0 | 6.0 | 0.00 | 0.00 | 0.00 | 33 | 1008.2 |
| 20260505153204 | 58 | 0 | 0.0 | 6.0 | 0.00 | 0.00 | 0.00 | 33 | 1008.2 |
| 20260505153104 | 58 | 0 | 0.0 | 6.0 | 0.00 | 0.00 | 0.00 | 33 | 1008.2 |
| 20260505153004 | 58 | 0 | 0.0 | 6.0 | 0.00 | 0.00 | 0.00 | 33 | 1008.2 |
| 20260505152904 | 58 | 0 | 0.0 | 6.0 | 0.00 | 0.00 | 0.00 | 33 | 1008.2 |
| 20260505152804 | 58 | 0 | 0.0 | 6.0 | 0.00 | 0.00 | 0.00 | 33 | 1008.2 |
| 20260505152704 | 58 | 0 | 0.0 | 6.0 | 0.00 | 0.00 | 0.00 | 33 | 1008.2 |
| 20260505152604 | 58 | 0 | 0.0 | 6.0 | 0.00 | 0.00 | 0.00 | 33 | 1008.2 |
| 20260505152504 | 58 | 0 | 0.0 | 6.0 | 0.00 | 0.00 | 0.00 | 33 | 1008.1 |
| 20260505152404 | 58 | 0 | 0.0 | 6.0 | 0.00 | 0.00 | 0.00 | 33 | 1008.1 |
| 20260505152305 | 58 | 0 | 0.0 | 6.0 | 0.00 | 0.00 | 0.00 | 33 | 1008.2 |
| 20260505152204 | 58 | 0 | 0.0 | 6.0 | 0.00 | 0.00 | 0.00 | 33 | 1008.2 |
| 20260505152104 | 58 | 0 | 0.0 | 6.0 | 0.00 | 0.00 | 0.00 | 33 | 1008.2 |
| 20260505152004 | 58 | 0 | 0.0 | 6.0 | 0.00 | 0.00 | 0.00 | 33 | 1008.2 |
| 20260505151904 | 58 | 0 | 0.0 | 6.0 | 0.00 | 0.00 | 0.00 | 33 | 1008.2 |
| 20260505151804 | 58 | 0 | 0.0 | 6.0 | 0.00 | 0.00 | 0.00 | 33 | 1008.3 |
| 20260505151704 | 58 | 0 | 0.0 | 6.0 | 0.00 | 0.00 | 0.00 | 33 | 1008.3 |
| 20260505151604 | 58 | 0 | 0.0 | 6.0 | 0.00 | 0.00 | 0.00 | 33 | 1008.3 |
| 20260505151525 | 58 | 0 | 0.0 | 6.0 | 0.00 | 0.00 | 0.00 | 33 | 1008.4 |
| 20260505151425 | 58 | 0 | 0.0 | 6.0 | 0.00 | 0.00 | 0.00 | 33 | 1008.4 |
| 20260505151325 | 58 | 0 | 0.0 | 6.0 | 0.00 | 0.00 | 0.00 | 33 | 1008.4 |
| 20260505151225 | 58 | 0 | 0.0 | 6.0 | 0.00 | 0.00 | 0.00 | 33 | 1008.2 |
| 20260505151125 | 58 | 0 | 0.0 | 6.0 | 0.00 | 0.00 | 0.00 | 33 | 1008.2 |
| 20260505151004 | 58 | 0 | 0.0 | 6.0 | 0.00 | 0.00 | 0.00 | 33 | 1008.3 |
| 20260505150904 | 58 | 0 | 0.0 | 6.0 | 0.00 | 0.00 | 0.00 | 33 | 1008.3 |
| 20260505150804 | 58 | 0 | 0.0 | 6.0 | 0.00 | 0.00 | 0.00 | 33 | 1008.3 |
| 20260505150704 | 58 | 0 | 0.0 | 6.0 | 0.00 | 0.00 | 0.00 | 33 | 1008.3 |
| 20260505150604 | 58 | 0 | 0.0 | 6.0 | 0.00 | 0.00 | 0.00 | 33 | 1008.3 |
| 20260505150504 | 58 | 0 | 0.0 | 6.0 | 0.00 | 0.00 | 0.00 | 33 | 1008.3 |
| 20260505150404 | 58 | 0 | 0.0 | 6.0 | 0.00 | 0.00 | 0.00 | 33 | 1008.4 |
| 20260505150304 | 58 | 0 | 0.0 | 6.0 | 0.00 | 0.00 | 0.00 | 33 | 1008.4 |
| 20260505150204 | 58 | 0 | 0.0 | 6.0 | 0.00 | 0.00 | 0.00 | 33 | 1008.3 |
| 20260505150104 | 58 | 0 | 0.0 | 6.0 | 0.00 | 0.00 | 0.00 | 33 | 1008.4 |
| 20260505140625 | 58 | 0 | 0.0 | 6.0 | 0.00 | 0.00 | 0.00 | 33 | 1009.0 |
| 20260505140525 | 58 | 0 | 0.0 | 6.0 | 0.00 | 0.00 | 0.00 | 33 | 1009.0 |
| 20260505140425 | 58 | 0 | 0.0 | 6.0 | 0.00 | 0.00 | 0.00 | 33 | 1009.0 |
| 20260505140325 | 58 | 0 | 0.0 | 6.0 | 0.00 | 0.00 | 0.00 | 33 | 1009.0 |
| 20260505140225 | 58 | 0 | 0.0 | 6.0 | 0.00 | 0.00 | 0.00 | 33 | 1008.9 |
| 20260505140125 | 58 | 0 | 0.0 | 6.0 | 0.00 | 0.00 | 0.00 | 33 | 1008.9 |
| 20260505130304 | 58 | 0 | 0.0 | 6.0 | 0.00 | 0.00 | 0.00 | 33 | 1008.6 |
| 20260505130204 | 58 | 0 | 0.0 | 6.0 | 0.00 | 0.00 | 0.00 | 33 | 1008.7 |
| 20260505130104 | 58 | 0 | 0.0 | 6.0 | 0.00 | 0.00 | 0.00 | 33 | 1008.7 |
| 20260505125004 | 58 | 0 | 0.0 | 6.0 | 0.00 | 0.00 | 0.00 | 33 | 1008.6 |
| 20260505124904 | 58 | 0 | 0.0 | 6.0 | 0.00 | 0.00 | 0.00 | 33 | 1008.6 |
| 20260505124804 | 58 | 0 | 0.0 | 6.0 | 0.00 | 0.00 | 0.00 | 33 | 1008.7 |
| 20260505124704 | 58 | 0 | 0.0 | 6.0 | 0.00 | 0.00 | 0.00 | 33 | 1008.7 |
| 20260505124604 | 58 | 0 | 0.0 | 6.0 | 0.00 | 0.00 | 0.00 | 33 | 1008.6 |
| 20260505124504 | 58 | 0 | 0.0 | 6.0 | 0.00 | 0.00 | 0.00 | 33 | 1008.7 |
| 20260505124403 | 58 | 0 | 0.0 | 6.0 | 0.00 | 0.00 | 0.00 | 33 | 1008.7 |
| 20260505124304 | 58 | 0 | 0.0 | 6.0 | 0.00 | 0.00 | 0.00 | 33 | 1008.8 |
| 20260505124204 | 58 | 0 | 0.0 | 6.0 | 0.00 | 0.00 | 0.00 | 33 | 1008.8 |
| 20260505124103 | 58 | 0 | 0.0 | 6.0 | 0.00 | 0.00 | 0.00 | 33 | 1008.7 |
| 20260505124004 | 58 | 0 | 0.0 | 6.0 | 0.00 | 0.00 | 0.00 | 33 | 1008.8 |
| 20260505123904 | 58 | 0 | 0.0 | 6.0 | 0.00 | 0.00 | 0.00 | 33 | 1008.8 |
| 20260505123804 | 58 | 0 | 0.0 | 6.0 | 0.00 | 0.00 | 0.00 | 33 | 1008.8 |
| 20260505123704 | 58 | 0 | 0.0 | 6.0 | 0.00 | 0.00 | 0.00 | 33 | 1008.8 |
| 20260505123604 | 58 | 0 | 0.0 | 6.0 | 0.00 | 0.00 | 0.00 | 33 | 1008.8 |
| 20260505123504 | 58 | 0 | 0.0 | 6.0 | 0.00 | 0.00 | 0.00 | 33 | 1008.8 |
| 20260505123404 | 58 | 0 | 0.0 | 6.0 | 0.00 | 0.00 | 0.00 | 33 | 1008.8 |
| 20260505123304 | 58 | 0 | 0.0 | 6.0 | 0.00 | 0.00 | 0.00 | 33 | 1008.8 |
| 20260505123204 | 58 | 0 | 0.0 | 6.0 | 0.00 | 0.00 | 0.00 | 33 | 1008.7 |
| 20260505123104 | 58 | 0 | 0.0 | 6.0 | 0.00 | 0.00 | 0.00 | 33 | 1008.7 |
| 20260505123004 | 58 | 0 | 0.0 | 6.0 | 0.00 | 0.00 | 0.00 | 33 | 1008.7 |
| 20260505122904 | 58 | 0 | 0.0 | 6.0 | 0.00 | 0.00 | 0.00 | 33 | 1008.7 |
| 20260505122804 | 58 | 0 | 0.0 | 6.0 | 0.00 | 0.00 | 0.00 | 33 | 1008.7 |
| 20260505122704 | 58 | 0 | 0.0 | 6.0 | 0.00 | 0.00 | 0.00 | 33 | 1008.7 |
| 20260505122604 | 58 | 0 | 0.0 | 6.0 | 0.00 | 0.00 | 0.00 | 33 | 1008.7 |
| 20260505122504 | 58 | 0 | 0.0 | 6.0 | 0.00 | 0.00 | 0.00 | 33 | 1008.7 |
| 20260505122404 | 58 | 0 | 0.0 | 6.0 | 0.00 | 0.00 | 0.00 | 33 | 1008.7 |
| 20260505122305 | 58 | 0 | 0.0 | 6.0 | 0.00 | 0.00 | 0.00 | 33 | 1008.7 |
| 20260505122204 | 58 | 0 | 0.0 | 6.0 | 0.00 | 0.00 | 0.00 | 33 | 1008.6 |
| 20260505122104 | 58 | 0 | 0.0 | 6.0 | 0.00 | 0.00 | 0.00 | 33 | 1008.6 |
| 20260505122004 | 58 | 0 | 0.0 | 6.0 | 0.00 | 0.00 | 0.00 | 33 | 1008.6 |
| 20260505121904 | 58 | 0 | 0.0 | 6.0 | 0.00 | 0.00 | 0.00 | 33 | 1008.6 |
| 20260505121804 | 58 | 0 | 0.0 | 6.0 | 0.00 | 0.00 | 0.00 | 33 | 1008.6 |
| 20260505121704 | 58 | 0 | 0.0 | 6.0 | 0.00 | 0.00 | 0.00 | 33 | 1008.6 |
| 20260505121604 | 58 | 0 | 0.0 | 6.0 | 0.00 | 0.00 | 0.00 | 33 | 1008.6 |
| 20260505121504 | 58 | 0 | 0.0 | 6.0 | 0.00 | 0.00 | 0.00 | 33 | 1008.5 |
| 20260505121404 | 58 | 0 | 0.0 | 6.0 | 0.00 | 0.00 | 0.00 | 33 | 1008.5 |
| 20260505121304 | 58 | 0 | 0.0 | 6.0 | 0.00 | 0.00 | 0.00 | 33 | 1008.5 |
| 20260505121204 | 58 | 0 | 0.0 | 6.0 | 0.00 | 0.00 | 0.00 | 33 | 1008.4 |
| 20260505121104 | 58 | 0 | 0.0 | 6.0 | 0.00 | 0.00 | 0.00 | 33 | 1008.4 |
| 20260505121004 | 58 | 0 | 0.0 | 6.0 | 0.00 | 0.00 | 0.00 | 33 | 1008.4 |
| 20260505120904 | 58 | 0 | 0.0 | 6.0 | 0.00 | 0.00 | 0.00 | 33 | 1008.4 |
| 20260505120804 | 58 | 0 | 0.0 | 6.0 | 0.00 | 0.00 | 0.00 | 33 | 1008.4 |
| 20260505120704 | 58 | 0 | 0.0 | 6.0 | 0.00 | 0.00 | 0.00 | 33 | 1008.4 |
| 20260505120604 | 58 | 0 | 0.0 | 6.0 | 0.00 | 0.00 | 0.00 | 33 | 1008.4 |
| 20260505120504 | 58 | 0 | 0.0 | 6.0 | 0.00 | 0.00 | 0.00 | 33 | 1008.5 |
| 20260505120404 | 58 | 0 | 0.0 | 6.0 | 0.00 | 0.00 | 0.00 | 33 | 1008.6 |
| 20260505120304 | 58 | 0 | 0.0 | 6.0 | 0.00 | 0.00 | 0.00 | 33 | 1008.6 |
| 20260505120204 | 58 | 0 | 0.0 | 6.0 | 0.00 | 0.00 | 0.00 | 33 | 1008.6 |
| 20260505120104 | 58 | 0 | 0.0 | 6.0 | 0.00 | 0.00 | 0.00 | 33 | 1008.7 |
| 20260505120005 | 58 | 0 | 0.0 | 6.0 | 0.00 | 0.00 | 0.00 | 33 | 1008.7 |
| 20260505115904 | 58 | 0 | 0.0 | 6.0 | 0.00 | 0.00 | 0.00 | 33 | 1008.9 |
| 20260505115804 | 58 | 0 | 0.0 | 6.0 | 0.00 | 0.00 | 0.00 | 33 | 1008.9 |
| 20260505115704 | 58 | 0 | 0.0 | 6.0 | 0.00 | 0.00 | 0.00 | 33 | 1008.9 |
| 20260505115604 | 58 | 0 | 0.0 | 6.0 | 0.00 | 0.00 | 0.00 | 33 | 1008.9 |
| 20260505115504 | 58 | 0 | 0.0 | 6.0 | 0.00 | 0.00 | 0.00 | 33 | 1008.9 |
| 20260505115404 | 58 | 0 | 0.0 | 6.0 | 0.00 | 0.00 | 0.00 | 33 | 1008.9 |
| 20260505115305 | 58 | 0 | 0.0 | 6.0 | 0.00 | 0.00 | 0.00 | 33 | 1008.9 |
| 20260505115204 | 58 | 0 | 0.0 | 6.0 | 0.00 | 0.00 | 0.00 | 33 | 1008.8 |
| 20260505115104 | 58 | 0 | 0.0 | 6.0 | 0.00 | 0.00 | 0.00 | 33 | 1009.0 |
| 20260505115004 | 58 | 0 | 0.0 | 6.0 | 0.00 | 0.00 | 0.00 | 33 | 1009.0 |
| 20260505114904 | 58 | 0 | 0.0 | 6.0 | 0.00 | 0.00 | 0.00 | 33 | 1008.9 |
| 20260505114804 | 58 | 0 | 0.0 | 6.0 | 0.00 | 0.00 | 0.00 | 33 | 1008.9 |
| 20260505114704 | 58 | 0 | 0.0 | 6.0 | 0.00 | 0.00 | 0.00 | 33 | 1009.0 |
| 20260505114604 | 58 | 0 | 0.0 | 6.0 | 0.00 | 0.00 | 0.00 | 33 | 1009.0 |
| 20260505114505 | 58 | 0 | 0.0 | 6.0 | 0.00 | 0.00 | 0.00 | 33 | 1009.0 |
| 20260505114403 | 58 | 0 | 0.0 | 6.0 | 0.00 | 0.00 | 0.00 | 33 | 1009.1 |
| 20260505114303 | 58 | 0 | 0.0 | 6.0 | 0.00 | 0.00 | 0.00 | 33 | 1009.1 |
| 20260505114203 | 58 | 0 | 0.0 | 6.0 | 0.00 | 0.00 | 0.00 | 33 | 1008.9 |
| 20260505114103 | 58 | 0 | 0.0 | 6.0 | 0.00 | 0.00 | 0.00 | 33 | 1009.0 |
| 20260505114003 | 58 | 0 | 0.0 | 6.0 | 0.00 | 0.00 | 0.00 | 33 | 1009.0 |
| 20260505113904 | 58 | 0 | 0.0 | 6.0 | 0.00 | 0.00 | 0.00 | 33 | 1009.1 |
| 20260505113803 | 58 | 0 | 0.0 | 6.0 | 0.00 | 0.00 | 0.00 | 33 | 1009.2 |
| 20260505113703 | 58 | 0 | 0.0 | 6.0 | 0.00 | 0.00 | 0.00 | 33 | 1009.2 |
| 20260505113604 | 58 | 0 | 0.0 | 6.0 | 0.00 | 0.00 | 0.00 | 33 | 1009.3 |
| 20260505113504 | 58 | 0 | 0.0 | 6.0 | 0.00 | 0.00 | 0.00 | 33 | 1009.3 |
| 20260505113403 | 58 | 0 | 0.0 | 6.0 | 0.00 | 0.00 | 0.00 | 33 | 1009.3 |
| 20260505113304 | 58 | 0 | 0.0 | 6.0 | 0.00 | 0.00 | 0.00 | 33 | 1009.3 |
| 20260505113203 | 58 | 0 | 0.0 | 6.0 | 0.00 | 0.00 | 0.00 | 33 | 1009.3 |
| 20260505113103 | 58 | 0 | 0.0 | 6.0 | 0.00 | 0.00 | 0.00 | 33 | 1009.3 |
| 20260505113004 | 58 | 0 | 0.0 | 6.0 | 0.00 | 0.00 | 0.00 | 33 | 1009.3 |
| 20260505112904 | 58 | 0 | 0.0 | 6.0 | 0.00 | 0.00 | 0.00 | 33 | 1009.2 |
| 20260505112804 | 58 | 0 | 0.0 | 6.0 | 0.00 | 0.00 | 0.00 | 33 | 1009.1 |
| 20260505112704 | 58 | 0 | 0.0 | 6.0 | 0.00 | 0.00 | 0.00 | 33 | 1009.1 |
| 20260505112604 | 58 | 0 | 0.0 | 6.0 | 0.00 | 0.00 | 0.00 | 33 | 1009.1 |
| 20260505112504 | 58 | 0 | 0.0 | 6.0 | 0.00 | 0.00 | 0.00 | 33 | 1009.1 |
| 20260505112404 | 58 | 0 | 0.0 | 6.0 | 0.00 | 0.00 | 0.00 | 33 | 1009.1 |
| 20260505112305 | 58 | 0 | 0.0 | 6.0 | 0.00 | 0.00 | 0.00 | 33 | 1009.1 |
| 20260505112204 | 58 | 0 | 0.0 | 6.0 | 0.00 | 0.00 | 0.00 | 33 | 1009.1 |
| 20260505112104 | 58 | 0 | 0.0 | 6.0 | 0.00 | 0.00 | 0.00 | 33 | 1009.1 |
| 20260505112004 | 58 | 0 | 0.0 | 6.0 | 0.00 | 0.00 | 0.00 | 33 | 1009.2 |
| 20260505111904 | 58 | 0 | 0.0 | 6.0 | 0.00 | 0.00 | 0.00 | 33 | 1009.2 |
| 20260505111804 | 58 | 0 | 0.0 | 6.0 | 0.00 | 0.00 | 0.00 | 33 | 1009.2 |
| 20260505111704 | 58 | 0 | 0.0 | 6.0 | 0.00 | 0.00 | 0.00 | 33 | 1009.4 |
| 20260505111604 | 58 | 0 | 0.0 | 6.0 | 0.00 | 0.00 | 0.00 | 33 | 1009.4 |
| 20260505111504 | 58 | 0 | 0.0 | 6.0 | 0.00 | 0.00 | 0.00 | 33 | 1009.4 |
| 20260505111404 | 58 | 0 | 0.0 | 6.0 | 0.00 | 0.00 | 0.00 | 33 | 1009.4 |
| 20260505111304 | 58 | 0 | 0.0 | 6.0 | 0.00 | 0.00 | 0.00 | 33 | 1009.4 |
| 20260505111204 | 58 | 0 | 0.0 | 6.0 | 0.00 | 0.00 | 0.00 | 33 | 1009.5 |
| 20260505111104 | 58 | 0 | 0.0 | 6.0 | 0.00 | 0.00 | 0.00 | 33 | 1009.5 |
| 20260505111004 | 58 | 0 | 0.0 | 6.0 | 0.00 | 0.00 | 0.00 | 33 | 1009.4 |
| 20260505110904 | 58 | 0 | 0.0 | 6.0 | 0.00 | 0.00 | 0.00 | 33 | 1009.3 |
| 20260505110804 | 58 | 0 | 0.0 | 6.0 | 0.00 | 0.00 | 0.00 | 33 | 1009.3 |
| 20260505110704 | 58 | 0 | 0.0 | 6.0 | 0.00 | 0.00 | 0.00 | 33 | 1009.4 |
| 20260505110604 | 58 | 0 | 0.0 | 6.0 | 0.00 | 0.00 | 0.00 | 33 | 1009.4 |
| 20260505110504 | 58 | 0 | 0.0 | 6.0 | 0.00 | 0.00 | 0.00 | 33 | 1009.5 |
| 20260505110404 | 58 | 0 | 0.0 | 6.0 | 0.00 | 0.00 | 0.00 | 33 | 1009.4 |
| 20260505110304 | 58 | 0 | 0.0 | 6.0 | 0.00 | 0.00 | 0.00 | 33 | 1009.4 |
| 20260505110204 | 58 | 0 | 0.0 | 6.0 | 0.00 | 0.00 | 0.00 | 33 | 1009.4 |
| 20260505110104 | 58 | 0 | 0.0 | 6.0 | 0.00 | 0.00 | 0.00 | 33 | 1009.3 |
| 20260505102204 | 58 | 0 | 0.0 | 6.0 | 0.00 | 0.00 | 0.00 | 33 | 1009.1 |
| 20260505102104 | 58 | 0 | 0.0 | 6.0 | 0.00 | 0.00 | 0.00 | 33 | 1009.1 |
| 20260505102004 | 58 | 0 | 0.0 | 6.0 | 0.00 | 0.00 | 0.00 | 33 | 1009.0 |
| 20260505101904 | 58 | 0 | 0.0 | 6.0 | 0.00 | 0.00 | 0.00 | 33 | 1008.8 |
| 20260505101804 | 58 | 0 | 0.0 | 6.0 | 0.00 | 0.00 | 0.00 | 33 | 1008.8 |
| 20260505101704 | 58 | 0 | 0.0 | 6.0 | 0.00 | 0.00 | 0.00 | 33 | 1008.8 |
| 20260505101604 | 58 | 0 | 0.0 | 6.0 | 0.00 | 0.00 | 0.00 | 33 | 1008.8 |
| 20260505101504 | 58 | 0 | 0.0 | 6.0 | 0.00 | 0.00 | 0.00 | 33 | 1008.8 |
| 20260505101404 | 58 | 0 | 0.0 | 6.0 | 0.00 | 0.00 | 0.00 | 33 | 1008.8 |
| 20260505101304 | 58 | 0 | 0.0 | 6.0 | 0.00 | 0.00 | 0.00 | 33 | 1008.8 |
| 20260505101204 | 58 | 0 | 0.0 | 6.0 | 0.00 | 0.00 | 0.00 | 33 | 1008.9 |
| 20260505101104 | 58 | 0 | 0.0 | 6.0 | 0.00 | 0.00 | 0.00 | 33 | 1008.9 |
| 20260505101004 | 58 | 0 | 0.0 | 6.0 | 0.00 | 0.00 | 0.00 | 33 | 1008.9 |
| 20260505100904 | 58 | 0 | 0.0 | 6.0 | 0.00 | 0.00 | 0.00 | 33 | 1008.9 |
| 20260505100804 | 58 | 0 | 0.0 | 6.0 | 0.00 | 0.00 | 0.00 | 33 | 1008.9 |
| 20260505100703 | 58 | 0 | 0.0 | 6.0 | 0.00 | 0.00 | 0.00 | 33 | 1008.9 |
| 20260505100603 | 58 | 0 | 0.0 | 6.0 | 0.00 | 0.00 | 0.00 | 33 | 1008.9 |
| 20260505100504 | 58 | 0 | 0.0 | 6.0 | 0.00 | 0.00 | 0.00 | 33 | 1008.9 |
| 20260505100403 | 58 | 0 | 0.0 | 6.0 | 0.00 | 0.00 | 0.00 | 33 | 1008.9 |
| 20260505100304 | 58 | 0 | 0.0 | 6.0 | 0.00 | 0.00 | 0.00 | 33 | 1008.9 |
| 20260505100204 | 58 | 0 | 0.0 | 6.0 | 0.00 | 0.00 | 0.00 | 33 | 1008.8 |
| 20260505100104 | 58 | 0 | 0.0 | 6.0 | 0.00 | 0.00 | 0.00 | 33 | 1008.8 |
| 20260505100004 | 58 | 0 | 0.0 | 6.0 | 0.00 | 0.00 | 0.00 | 33 | 1008.8 |
| 20260505095904 | 58 | 0 | 0.0 | 6.0 | 0.00 | 0.00 | 0.00 | 33 | 1008.5 |
| 20260505095804 | 58 | 0 | 0.0 | 6.0 | 0.00 | 0.00 | 0.00 | 33 | 1008.5 |
| 20260505095704 | 58 | 0 | 0.0 | 6.0 | 0.00 | 0.00 | 0.00 | 33 | 1008.5 |
| 20260505095604 | 58 | 0 | 0.0 | 6.0 | 0.00 | 0.00 | 0.00 | 33 | 1008.4 |
| 20260505095504 | 58 | 0 | 0.0 | 6.0 | 0.00 | 0.00 | 0.00 | 33 | 1008.4 |
| 20260505095404 | 58 | 0 | 0.0 | 6.0 | 0.00 | 0.00 | 0.00 | 33 | 1008.3 |
| 20260505095305 | 58 | 0 | 0.0 | 6.0 | 0.00 | 0.00 | 0.00 | 33 | 1008.3 |
| 20260505095204 | 58 | 0 | 0.0 | 6.0 | 0.00 | 0.00 | 0.00 | 33 | 1008.3 |
| 20260505095104 | 58 | 0 | 0.0 | 6.0 | 0.00 | 0.00 | 0.00 | 33 | 1008.4 |
| 20260505095004 | 58 | 0 | 0.0 | 6.0 | 0.00 | 0.00 | 0.00 | 33 | 1008.3 |
| 20260505094904 | 58 | 0 | 0.0 | 6.0 | 0.00 | 0.00 | 0.00 | 33 | 1008.3 |
| 20260505094804 | 58 | 0 | 0.0 | 6.0 | 0.00 | 0.00 | 0.00 | 33 | 1008.3 |
| 20260505094704 | 58 | 0 | 0.0 | 6.0 | 0.00 | 0.00 | 0.00 | 33 | 1008.3 |
| 20260505094604 | 58 | 0 | 0.0 | 6.0 | 0.00 | 0.00 | 0.00 | 33 | 1008.3 |
| 20260505094504 | 58 | 0 | 0.0 | 6.0 | 0.00 | 0.00 | 0.00 | 33 | 1008.3 |
| 20260505094404 | 58 | 0 | 0.0 | 6.0 | 0.00 | 0.00 | 0.00 | 33 | 1008.3 |
| 20260505094325 | 58 | 0 | 0.0 | 6.0 | 0.00 | 0.00 | 0.00 | 33 | 1008.3 |
| 20260505094204 | 58 | 0 | 0.0 | 6.0 | 0.00 | 0.00 | 0.00 | 33 | 1008.3 |
| 20260505094104 | 58 | 0 | 0.0 | 6.0 | 0.00 | 0.00 | 0.00 | 33 | 1008.3 |
| 20260505094004 | 58 | 0 | 0.0 | 6.0 | 0.00 | 0.00 | 0.00 | 33 | 1008.3 |
| 20260505093904 | 58 | 0 | 0.0 | 6.0 | 0.00 | 0.00 | 0.00 | 33 | 1008.3 |
| 20260505093804 | 58 | 0 | 0.0 | 6.0 | 0.00 | 0.00 | 0.00 | 33 | 1008.3 |
| 20260505093704 | 58 | 0 | 0.0 | 6.0 | 0.00 | 0.00 | 0.00 | 33 | 1008.3 |
| 20260505093604 | 58 | 0 | 0.0 | 6.0 | 0.00 | 0.00 | 0.00 | 33 | 1008.3 |
| 20260505093504 | 58 | 0 | 0.0 | 6.0 | 0.00 | 0.00 | 0.00 | 33 | 1008.4 |
| 20260505093404 | 58 | 0 | 0.0 | 6.0 | 0.00 | 0.00 | 0.00 | 33 | 1008.4 |
| 20260505093304 | 58 | 0 | 0.0 | 6.0 | 0.00 | 0.00 | 0.00 | 33 | 1008.3 |
| 20260505093225 | 58 | 0 | 0.0 | 6.0 | 0.00 | 0.00 | 0.00 | 33 | 1008.3 |
| 20260505093125 | 58 | 0 | 0.0 | 6.0 | 0.00 | 0.00 | 0.00 | 33 | 1008.2 |
| 20260505093025 | 58 | 0 | 0.0 | 6.0 | 0.00 | 0.00 | 0.00 | 33 | 1008.3 |
| 20260505092925 | 58 | 0 | 0.0 | 6.0 | 0.00 | 0.00 | 0.00 | 33 | 1008.3 |
| 20260505092825 | 58 | 0 | 0.0 | 6.0 | 0.00 | 0.00 | 0.00 | 33 | 1008.3 |
| 20260505092704 | 58 | 0 | 0.0 | 6.0 | 0.00 | 0.00 | 0.00 | 33 | 1008.3 |
| 20260505092604 | 58 | 0 | 0.0 | 6.0 | 0.00 | 0.00 | 0.00 | 33 | 1008.3 |
| 20260505092504 | 58 | 0 | 0.0 | 6.0 | 0.00 | 0.00 | 0.00 | 33 | 1008.3 |
| 20260505092404 | 58 | 0 | 0.0 | 6.0 | 0.00 | 0.00 | 0.00 | 33 | 1008.3 |
| 20260505092305 | 58 | 0 | 0.0 | 6.0 | 0.00 | 0.00 | 0.00 | 33 | 1008.2 |
| 20260505092204 | 58 | 0 | 0.0 | 6.0 | 0.00 | 0.00 | 0.00 | 33 | 1008.2 |
| 20260505092104 | 58 | 0 | 0.0 | 6.0 | 0.00 | 0.00 | 0.00 | 33 | 1008.2 |
| 20260505092004 | 58 | 0 | 0.0 | 6.0 | 0.00 | 0.00 | 0.00 | 33 | 1008.2 |
| 20260505091904 | 58 | 0 | 0.0 | 6.0 | 0.00 | 0.00 | 0.00 | 33 | 1008.2 |
| 20260505091804 | 58 | 0 | 0.0 | 6.0 | 0.00 | 0.00 | 0.00 | 33 | 1008.2 |
| 20260505091724 | 58 | 0 | 0.0 | 6.0 | 0.00 | 0.00 | 0.00 | 33 | 1008.1 |
| 20260505091624 | 58 | 0 | 0.0 | 6.0 | 0.00 | 0.00 | 0.00 | 33 | 1008.1 |
| 20260505091524 | 58 | 0 | 0.0 | 6.0 | 0.00 | 0.00 | 0.00 | 33 | 1008.0 |
| 20260505091424 | 58 | 0 | 0.0 | 6.0 | 0.00 | 0.00 | 0.00 | 33 | 1008.0 |
| 20260505091324 | 58 | 0 | 0.0 | 6.0 | 0.00 | 0.00 | 0.00 | 33 | 1008.1 |
| 20260505091204 | 58 | 0 | 0.0 | 6.0 | 0.00 | 0.00 | 0.00 | 33 | 1008.0 |
| 20260505091104 | 58 | 0 | 0.0 | 6.0 | 0.00 | 0.00 | 0.00 | 33 | 1008.0 |
| 20260505091004 | 58 | 0 | 0.0 | 6.0 | 0.00 | 0.00 | 0.00 | 33 | 1008.0 |
| 20260505090904 | 58 | 0 | 0.0 | 6.0 | 0.00 | 0.00 | 0.00 | 33 | 1008.0 |
| 20260505090804 | 58 | 0 | 0.0 | 6.0 | 0.00 | 0.00 | 0.00 | 33 | 1008.0 |
| 20260505090725 | 58 | 0 | 0.0 | 6.0 | 0.00 | 0.00 | 0.00 | 33 | 1008.0 |
| 20260505090625 | 58 | 0 | 0.0 | 6.0 | 0.00 | 0.00 | 0.00 | 33 | 1008.0 |
| 20260505090525 | 58 | 0 | 0.0 | 6.0 | 0.00 | 0.00 | 0.00 | 33 | 1008.0 |
| 20260505090425 | 58 | 0 | 0.0 | 6.0 | 0.00 | 0.00 | 0.00 | 33 | 1008.0 |
| 20260505090325 | 58 | 0 | 0.0 | 6.0 | 0.00 | 0.00 | 0.00 | 33 | 1008.0 |
| 20260505090204 | 58 | 0 | 0.0 | 6.0 | 0.00 | 0.00 | 0.00 | 33 | 1008.0 |
| 20260505090004 | 58 | 0 | 0.0 | 6.0 | 0.00 | 0.00 | 0.00 | 33 | 1008.0 |
| 20260505085903 | 58 | 0 | 0.0 | 6.0 | 0.00 | 0.00 | 0.00 | 33 | 1008.0 |
| 20260505085804 | 58 | 0 | 0.0 | 6.0 | 0.00 | 0.00 | 0.00 | 33 | 1008.0 |
| 20260505085704 | 58 | 0 | 0.0 | 6.0 | 0.00 | 0.00 | 0.00 | 33 | 1008.1 |
| 20260505085604 | 58 | 0 | 0.0 | 6.0 | 0.00 | 0.00 | 0.00 | 33 | 1008.1 |
| 20260505085504 | 58 | 0 | 0.0 | 6.0 | 0.00 | 0.00 | 0.00 | 33 | 1008.1 |
| 20260505085404 | 58 | 0 | 0.0 | 6.0 | 0.00 | 0.00 | 0.00 | 33 | 1008.0 |
| 20260505085305 | 58 | 0 | 0.0 | 6.0 | 0.00 | 0.00 | 0.00 | 33 | 1008.0 |
| 20260505085203 | 58 | 0 | 0.0 | 6.0 | 0.00 | 0.00 | 0.00 | 33 | 1008.0 |
| 20260505085103 | 58 | 0 | 0.0 | 6.0 | 0.00 | 0.00 | 0.00 | 33 | 1008.0 |
| 20260505085003 | 58 | 0 | 0.0 | 6.0 | 0.00 | 0.00 | 0.00 | 33 | 1008.0 |
| 20260505084903 | 58 | 0 | 0.0 | 6.0 | 0.00 | 0.00 | 0.00 | 33 | 1008.0 |
| 20260505084804 | 58 | 0 | 0.0 | 6.0 | 0.00 | 0.00 | 0.00 | 33 | 1008.1 |
| 20260505084704 | 58 | 0 | 0.0 | 6.0 | 0.00 | 0.00 | 0.00 | 33 | 1008.1 |
| 20260505084604 | 58 | 0 | 0.0 | 6.0 | 0.00 | 0.00 | 0.00 | 33 | 1008.1 |
| 20260505084504 | 58 | 0 | 0.0 | 6.0 | 0.00 | 0.00 | 0.00 | 33 | 1008.1 |
| 20260505084404 | 58 | 0 | 0.0 | 6.0 | 0.00 | 0.00 | 0.00 | 33 | 1008.1 |
| 20260505084304 | 58 | 0 | 0.0 | 6.0 | 0.00 | 0.00 | 0.00 | 33 | 1008.1 |
| 20260505084225 | 58 | 0 | 0.0 | 6.0 | 0.00 | 0.00 | 0.00 | 33 | 1008.1 |
| 20260505084104 | 58 | 0 | 0.0 | 6.0 | 0.00 | 0.00 | 0.00 | 33 | 1008.1 |
| 20260505084004 | 58 | 0 | 0.0 | 6.0 | 0.00 | 0.00 | 0.00 | 33 | 1008.1 |
| 20260505083904 | 58 | 0 | 0.0 | 6.0 | 0.00 | 0.00 | 0.00 | 33 | 1008.1 |
| 20260505083804 | 58 | 0 | 0.0 | 6.0 | 0.00 | 0.00 | 0.00 | 33 | 1008.1 |
| 20260505083704 | 58 | 0 | 0.0 | 6.0 | 0.00 | 0.00 | 0.00 | 33 | 1008.1 |
| 20260505083604 | 58 | 0 | 0.0 | 6.0 | 0.00 | 0.00 | 0.00 | 33 | 1008.1 |
| 20260505083504 | 58 | 0 | 0.0 | 6.0 | 0.00 | 0.00 | 0.00 | 33 | 1008.1 |
| 20260505083404 | 58 | 0 | 0.0 | 6.0 | 0.00 | 0.00 | 0.00 | 33 | 1008.1 |
| 20260505083304 | 58 | 0 | 0.0 | 6.0 | 0.00 | 0.00 | 0.00 | 33 | 1008.1 |
| 20260505083204 | 58 | 0 | 0.0 | 6.0 | 0.00 | 0.00 | 0.00 | 33 | 1008.1 |
| 20260505083104 | 58 | 0 | 0.0 | 6.0 | 0.00 | 0.00 | 0.00 | 33 | 1008.1 |
| 20260505083004 | 58 | 0 | 0.0 | 6.0 | 0.00 | 0.00 | 0.00 | 33 | 1008.0 |
| 20260505082904 | 58 | 0 | 0.0 | 6.0 | 0.00 | 0.00 | 0.00 | 33 | 1008.0 |
| 20260505082804 | 58 | 0 | 0.0 | 6.0 | 0.00 | 0.00 | 0.00 | 33 | 1008.0 |
| 20260505082704 | 58 | 0 | 0.0 | 6.0 | 0.00 | 0.00 | 0.00 | 33 | 1008.1 |
| 20260505082604 | 58 | 0 | 0.0 | 6.0 | 0.00 | 0.00 | 0.00 | 33 | 1008.1 |
| 20260505082504 | 58 | 0 | 0.0 | 6.0 | 0.00 | 0.00 | 0.00 | 33 | 1008.1 |
| 20260505082404 | 58 | 0 | 0.0 | 6.0 | 0.00 | 0.00 | 0.00 | 33 | 1008.1 |
| 20260505082304 | 58 | 0 | 0.0 | 6.0 | 0.00 | 0.00 | 0.00 | 33 | 1008.1 |
| 20260505082204 | 58 | 0 | 0.0 | 6.0 | 0.00 | 0.00 | 0.00 | 33 | 1008.0 |
| 20260505082104 | 58 | 0 | 0.0 | 6.0 | 0.00 | 0.00 | 0.00 | 33 | 1008.0 |
| 20260505082004 | 58 | 0 | 0.0 | 6.0 | 0.00 | 0.00 | 0.00 | 33 | 1008.1 |
| 20260505081904 | 58 | 0 | 0.0 | 6.0 | 0.00 | 0.00 | 0.00 | 33 | 1008.1 |
| 20260505081804 | 58 | 0 | 0.0 | 6.0 | 0.00 | 0.00 | 0.00 | 33 | 1008.1 |
| 20260505081704 | 58 | 0 | 0.0 | 6.0 | 0.00 | 0.00 | 0.00 | 33 | 1008.1 |
| 20260505081604 | 58 | 0 | 0.0 | 6.0 | 0.00 | 0.00 | 0.00 | 33 | 1008.1 |
| 20260505081504 | 58 | 0 | 0.0 | 6.0 | 0.00 | 0.00 | 0.00 | 33 | 1008.1 |
| 20260505081404 | 58 | 0 | 0.0 | 6.0 | 0.00 | 0.00 | 0.00 | 33 | 1008.1 |
| 20260505081304 | 58 | 0 | 0.0 | 6.0 | 0.00 | 0.00 | 0.00 | 33 | 1008.1 |
| 20260505081204 | 58 | 0 | 0.0 | 6.0 | 0.00 | 0.00 | 0.00 | 33 | 1008.2 |
| 20260505081104 | 58 | 0 | 0.0 | 6.0 | 0.00 | 0.00 | 0.00 | 33 | 1008.2 |
| 20260505081004 | 58 | 0 | 0.0 | 6.0 | 0.00 | 0.00 | 0.00 | 33 | 1008.1 |
| 20260505080904 | 58 | 0 | 0.0 | 6.0 | 0.00 | 0.00 | 0.00 | 33 | 1008.1 |
| 20260505080803 | 58 | 0 | 0.0 | 6.0 | 0.00 | 0.00 | 0.00 | 33 | 1008.1 |
| 20260505080704 | 58 | 0 | 0.0 | 6.0 | 0.00 | 0.00 | 0.00 | 33 | 1008.1 |
| 20260505080603 | 58 | 0 | 0.0 | 6.0 | 0.00 | 0.00 | 0.00 | 33 | 1008.1 |
| 20260505080503 | 58 | 0 | 0.0 | 6.0 | 0.00 | 0.00 | 0.00 | 33 | 1008.1 |
| 20260505080403 | 58 | 0 | 0.0 | 6.0 | 0.00 | 0.00 | 0.00 | 33 | 1008.2 |
| 20260505080304 | 58 | 0 | 0.0 | 6.0 | 0.00 | 0.00 | 0.00 | 33 | 1008.2 |
| 20260505080204 | 58 | 0 | 0.0 | 6.0 | 0.00 | 0.00 | 0.00 | 33 | 1008.1 |
| 20260505080133 | 58 | 0 | 0.0 | 6.0 | 0.00 | 0.00 | 0.00 | 33 | 1008.1 |
| 20260505080024 | 58 | 0 | 0.0 | 6.0 | 0.00 | 0.00 | 0.00 | 33 | 1008.2 |
| 20260505075924 | 58 | 0 | 0.0 | 6.0 | 0.00 | 0.00 | 0.00 | 33 | 1008.2 |
| 20260505075824 | 58 | 0 | 0.0 | 6.0 | 0.00 | 0.00 | 0.00 | 33 | 1008.2 |
| 20260505075725 | 58 | 0 | 0.0 | 6.0 | 0.00 | 0.00 | 0.00 | 33 | 1008.1 |
| 20260505075603 | 58 | 0 | 0.0 | 6.0 | 0.00 | 0.00 | 0.00 | 33 | 1008.2 |
| 20260505075503 | 58 | 0 | 0.0 | 6.0 | 0.00 | 0.00 | 0.00 | 33 | 1008.2 |
| 20260505075403 | 58 | 0 | 0.0 | 6.0 | 0.00 | 0.00 | 0.00 | 33 | 1008.2 |
| 20260505075304 | 58 | 0 | 0.0 | 6.0 | 0.00 | 0.00 | 0.00 | 33 | 1008.1 |
| 20260505075203 | 58 | 0 | 0.0 | 6.0 | 0.00 | 0.00 | 0.00 | 33 | 1008.1 |
| 20260505075103 | 58 | 0 | 0.0 | 6.0 | 0.00 | 0.00 | 0.00 | 33 | 1008.2 |
| 20260505075003 | 58 | 0 | 0.0 | 6.0 | 0.00 | 0.00 | 0.00 | 33 | 1008.1 |
| 20260505074903 | 58 | 0 | 0.0 | 6.0 | 0.00 | 0.00 | 0.00 | 33 | 1008.1 |
| 20260505074803 | 58 | 0 | 0.0 | 6.0 | 0.00 | 0.00 | 0.00 | 33 | 1008.2 |
| 20260505074703 | 58 | 0 | 0.0 | 6.0 | 0.00 | 0.00 | 0.00 | 33 | 1008.2 |
| 20260505074624 | 58 | 0 | 0.0 | 6.0 | 0.00 | 0.00 | 0.00 | 33 | 1008.1 |
| 20260505074525 | 58 | 0 | 0.0 | 6.0 | 0.00 | 0.00 | 0.00 | 33 | 1008.1 |
| 20260505074425 | 58 | 0 | 0.0 | 6.0 | 0.00 | 0.00 | 0.00 | 33 | 1008.2 |
| 20260505074325 | 58 | 0 | 0.0 | 6.0 | 0.00 | 0.00 | 0.00 | 33 | 1008.2 |
| 20260505074225 | 58 | 0 | 0.0 | 6.0 | 0.00 | 0.00 | 0.00 | 33 | 1008.2 |
| 20260505074125 | 58 | 0 | 0.0 | 6.0 | 0.00 | 0.00 | 0.00 | 33 | 1008.2 |
| 20260505074004 | 58 | 0 | 0.0 | 6.0 | 0.00 | 0.00 | 0.00 | 33 | 1008.2 |
| 20260505073904 | 58 | 0 | 0.0 | 6.0 | 0.00 | 0.00 | 0.00 | 33 | 1008.2 |
| 20260505073804 | 58 | 0 | 0.0 | 6.0 | 0.00 | 0.00 | 0.00 | 33 | 1008.2 |
| 20260505073704 | 58 | 0 | 0.0 | 6.0 | 0.00 | 0.00 | 0.00 | 33 | 1008.2 |
| 20260505073625 | 58 | 0 | 0.0 | 6.0 | 0.00 | 0.00 | 0.00 | 33 | 1008.2 |
| 20260505073525 | 58 | 0 | 0.0 | 6.0 | 0.00 | 0.00 | 0.00 | 33 | 1008.2 |
| 20260505073425 | 58 | 0 | 0.0 | 6.0 | 0.00 | 0.00 | 0.00 | 33 | 1008.3 |
| 20260505073325 | 58 | 0 | 0.0 | 6.0 | 0.00 | 0.00 | 0.00 | 33 | 1008.3 |
| 20260505073225 | 58 | 0 | 0.0 | 6.0 | 0.00 | 0.00 | 0.00 | 33 | 1008.3 |
| 20260505073125 | 58 | 0 | 0.0 | 6.0 | 0.00 | 0.00 | 0.00 | 33 | 1008.2 |
| 20260505073025 | 58 | 0 | 0.0 | 6.0 | 0.00 | 0.00 | 0.00 | 33 | 1008.2 |
| 20260505072903 | 58 | 0 | 0.0 | 6.0 | 0.00 | 0.00 | 0.00 | 33 | 1008.2 |
| 20260505072804 | 58 | 0 | 0.0 | 6.0 | 0.00 | 0.00 | 0.00 | 33 | 1008.3 |
| 20260505072704 | 58 | 0 | 0.0 | 6.0 | 0.00 | 0.00 | 0.00 | 33 | 1008.2 |
| 20260505072604 | 58 | 0 | 0.0 | 6.0 | 0.00 | 0.00 | 0.00 | 33 | 1008.2 |
| 20260505072504 | 58 | 0 | 0.0 | 6.0 | 0.00 | 0.00 | 0.00 | 33 | 1008.3 |
| 20260505072404 | 58 | 0 | 0.0 | 6.0 | 0.00 | 0.00 | 0.00 | 33 | 1008.3 |
| 20260505072305 | 58 | 0 | 0.0 | 6.0 | 0.00 | 0.00 | 0.00 | 33 | 1008.2 |
| 20260505072204 | 58 | 0 | 0.0 | 6.0 | 0.00 | 0.00 | 0.00 | 33 | 1008.3 |
| 20260505072104 | 58 | 0 | 0.0 | 6.0 | 0.00 | 0.00 | 0.00 | 33 | 1008.3 |
| 20260505072025 | 58 | 0 | 0.0 | 6.0 | 0.00 | 0.00 | 0.00 | 33 | 1008.2 |
| 20260505071904 | 58 | 0 | 0.0 | 6.0 | 0.00 | 0.00 | 0.00 | 33 | 1008.2 |
| 20260505071804 | 58 | 0 | 0.0 | 6.0 | 0.00 | 0.00 | 0.00 | 33 | 1008.2 |
| 20260505071704 | 58 | 0 | 0.0 | 6.0 | 0.00 | 0.00 | 0.00 | 33 | 1008.2 |
| 20260505071604 | 58 | 0 | 0.0 | 6.0 | 0.00 | 0.00 | 0.00 | 33 | 1008.2 |
| 20260505071504 | 58 | 0 | 0.0 | 6.0 | 0.00 | 0.00 | 0.00 | 33 | 1008.2 |
| 20260505071403 | 58 | 0 | 0.0 | 6.0 | 0.00 | 0.00 | 0.00 | 33 | 1008.2 |
| 20260505071303 | 58 | 0 | 0.0 | 6.0 | 0.00 | 0.00 | 0.00 | 33 | 1008.2 |
| 20260505071203 | 58 | 0 | 0.0 | 6.0 | 0.00 | 0.00 | 0.00 | 33 | 1008.2 |
| 20260505071103 | 58 | 0 | 0.0 | 6.0 | 0.00 | 0.00 | 0.00 | 33 | 1008.2 |
| 20260505071003 | 58 | 0 | 0.0 | 6.0 | 0.00 | 0.00 | 0.00 | 33 | 1008.2 |
| 20260505070904 | 58 | 0 | 0.0 | 6.0 | 0.00 | 0.00 | 0.00 | 33 | 1008.2 |
| 20260505070804 | 58 | 0 | 0.0 | 6.0 | 0.00 | 0.00 | 0.00 | 33 | 1008.2 |
| 20260505070704 | 58 | 0 | 0.0 | 6.0 | 0.00 | 0.00 | 0.00 | 33 | 1008.2 |
| 20260505070604 | 58 | 0 | 0.0 | 6.0 | 0.00 | 0.00 | 0.00 | 33 | 1008.2 |
| 20260505070504 | 58 | 0 | 0.0 | 6.0 | 0.00 | 0.00 | 0.00 | 33 | 1008.2 |
| 20260505070424 | 58 | 0 | 0.0 | 6.0 | 0.00 | 0.00 | 0.00 | 33 | 1008.2 |
| 20260505070324 | 58 | 0 | 0.0 | 6.0 | 0.00 | 0.00 | 0.00 | 33 | 1008.1 |
| 20260505070224 | 58 | 0 | 0.0 | 6.0 | 0.00 | 0.00 | 0.00 | 33 | 1008.1 |
| 20260505070124 | 58 | 0 | 0.0 | 6.0 | 0.00 | 0.00 | 0.00 | 33 | 1008.1 |
| 20260505070024 | 58 | 0 | 0.0 | 6.0 | 0.00 | 0.00 | 0.00 | 33 | 1008.0 |
| 20260505065925 | 58 | 0 | 0.0 | 6.0 | 0.00 | 0.00 | 0.00 | 33 | 1008.0 |
| 20260505065824 | 58 | 0 | 0.0 | 6.0 | 0.00 | 0.00 | 0.00 | 33 | 1008.0 |
| 20260505065725 | 58 | 0 | 0.0 | 6.0 | 0.00 | 0.00 | 0.00 | 33 | 1008.0 |
| 20260505065625 | 58 | 0 | 0.0 | 6.0 | 0.00 | 0.00 | 0.00 | 33 | 1008.0 |
| 20260505065525 | 58 | 0 | 0.0 | 6.0 | 0.00 | 0.00 | 0.00 | 33 | 1008.0 |
| 20260505065403 | 58 | 0 | 0.0 | 6.0 | 0.00 | 0.00 | 0.00 | 33 | 1008.0 |
| 20260505065304 | 58 | 0 | 0.0 | 6.0 | 0.00 | 0.00 | 0.00 | 33 | 1008.0 |
| 20260505065203 | 58 | 0 | 0.0 | 6.0 | 0.00 | 0.00 | 0.00 | 33 | 1008.0 |
| 20260505065103 | 58 | 0 | 0.0 | 6.0 | 0.00 | 0.00 | 0.00 | 33 | 1008.0 |
| 20260505065003 | 58 | 0 | 0.0 | 6.0 | 0.00 | 0.00 | 0.00 | 33 | 1008.1 |
| 20260505064903 | 58 | 0 | 0.0 | 6.0 | 0.00 | 0.00 | 0.00 | 33 | 1008.1 |
| 20260505064803 | 58 | 0 | 0.0 | 6.0 | 0.00 | 0.00 | 0.00 | 33 | 1008.1 |
| 20260505064703 | 58 | 0 | 0.0 | 6.0 | 0.00 | 0.00 | 0.00 | 33 | 1008.1 |
| 20260505064604 | 58 | 0 | 0.0 | 6.0 | 0.00 | 0.00 | 0.00 | 33 | 1008.1 |
| 20260505064504 | 58 | 0 | 0.0 | 6.0 | 0.00 | 0.00 | 0.00 | 33 | 1008.1 |
| 20260505064404 | 58 | 0 | 0.0 | 6.0 | 0.00 | 0.00 | 0.00 | 33 | 1008.1 |
| 20260505064304 | 58 | 0 | 0.0 | 6.0 | 0.00 | 0.00 | 0.00 | 33 | 1008.1 |
| 20260505064204 | 58 | 0 | 0.0 | 6.0 | 0.00 | 0.00 | 0.00 | 33 | 1008.1 |
| 20260505064104 | 58 | 0 | 0.0 | 6.0 | 0.00 | 0.00 | 0.00 | 33 | 1008.1 |
| 20260505064004 | 58 | 0 | 0.0 | 6.0 | 0.00 | 0.00 | 0.00 | 33 | 1008.1 |
| 20260505063925 | 58 | 0 | 0.0 | 6.0 | 0.00 | 0.00 | 0.00 | 33 | 1008.1 |
| 20260505063825 | 58 | 0 | 0.0 | 6.0 | 0.00 | 0.00 | 0.00 | 33 | 1008.1 |
| 20260505063725 | 58 | 0 | 0.0 | 6.0 | 0.00 | 0.00 | 0.00 | 33 | 1008.1 |
| 20260505063625 | 58 | 0 | 0.0 | 6.0 | 0.00 | 0.00 | 0.00 | 33 | 1008.1 |
| 20260505063525 | 58 | 0 | 0.0 | 6.0 | 0.00 | 0.00 | 0.00 | 33 | 1008.1 |
| 20260505063425 | 58 | 0 | 0.0 | 6.0 | 0.00 | 0.00 | 0.00 | 33 | 1008.1 |
| 20260505063325 | 58 | 0 | 0.0 | 6.0 | 0.00 | 0.00 | 0.00 | 33 | 1008.1 |
| 20260505063225 | 58 | 0 | 0.0 | 6.0 | 0.00 | 0.00 | 0.00 | 33 | 1008.1 |
| 20260505063125 | 58 | 0 | 0.0 | 6.0 | 0.00 | 0.00 | 0.00 | 33 | 1008.1 |
| 20260505063025 | 58 | 0 | 0.0 | 6.0 | 0.00 | 0.00 | 0.00 | 33 | 1008.2 |
| 20260505062925 | 58 | 0 | 0.0 | 6.0 | 0.00 | 0.00 | 0.00 | 33 | 1008.2 |
| 20260505062804 | 58 | 0 | 0.0 | 6.0 | 0.00 | 0.00 | 0.00 | 33 | 1008.2 |
| 20260505062704 | 58 | 0 | 0.0 | 6.0 | 0.00 | 0.00 | 0.00 | 33 | 1008.2 |
| 20260505062604 | 58 | 0 | 0.0 | 6.0 | 0.00 | 0.00 | 0.00 | 33 | 1008.2 |
| 20260505062504 | 58 | 0 | 0.0 | 6.0 | 0.00 | 0.00 | 0.00 | 33 | 1008.3 |
| 20260505062404 | 58 | 0 | 0.0 | 6.0 | 0.00 | 0.00 | 0.00 | 33 | 1008.3 |
| 20260505062304 | 58 | 0 | 0.0 | 6.0 | 0.00 | 0.00 | 0.00 | 33 | 1008.3 |
| 20260505062204 | 58 | 0 | 0.0 | 6.0 | 0.00 | 0.00 | 0.00 | 33 | 1008.4 |
| 20260505062104 | 58 | 0 | 0.0 | 6.0 | 0.00 | 0.00 | 0.00 | 33 | 1008.4 |
| 20260505062004 | 58 | 0 | 0.0 | 6.0 | 0.00 | 0.00 | 0.00 | 33 | 1008.4 |
| 20260505061904 | 58 | 0 | 0.0 | 6.0 | 0.00 | 0.00 | 0.00 | 33 | 1008.4 |
| 20260505061804 | 58 | 0 | 0.0 | 6.0 | 0.00 | 0.00 | 0.00 | 33 | 1008.4 |
| 20260505061704 | 58 | 0 | 0.0 | 6.0 | 0.00 | 0.00 | 0.00 | 33 | 1008.4 |
| 20260505061604 | 58 | 0 | 0.0 | 6.0 | 0.00 | 0.00 | 0.00 | 33 | 1008.4 |
| 20260505061504 | 58 | 0 | 0.0 | 6.0 | 0.00 | 0.00 | 0.00 | 33 | 1008.4 |
| 20260505061404 | 58 | 0 | 0.0 | 6.0 | 0.00 | 0.00 | 0.00 | 33 | 1008.4 |
| 20260505061304 | 58 | 0 | 0.0 | 6.0 | 0.00 | 0.00 | 0.00 | 33 | 1008.4 |
| 20260505061203 | 58 | 0 | 0.0 | 6.0 | 0.00 | 0.00 | 0.00 | 33 | 1008.4 |
| 20260505061103 | 58 | 0 | 0.0 | 6.0 | 0.00 | 0.00 | 0.00 | 33 | 1008.4 |
| 20260505061004 | 58 | 0 | 0.0 | 6.0 | 0.00 | 0.00 | 0.00 | 33 | 1008.5 |
| 20260505060925 | 58 | 0 | 0.0 | 6.0 | 0.00 | 0.00 | 0.00 | 33 | 1008.5 |
| 20260505060804 | 58 | 0 | 0.0 | 6.0 | 0.00 | 0.00 | 0.00 | 33 | 1008.4 |
| 20260505060704 | 58 | 0 | 0.0 | 6.0 | 0.00 | 0.00 | 0.00 | 33 | 1008.4 |
| 20260505060604 | 58 | 0 | 0.0 | 6.0 | 0.00 | 0.00 | 0.00 | 33 | 1008.4 |
| 20260505060504 | 58 | 0 | 0.0 | 6.0 | 0.00 | 0.00 | 0.00 | 33 | 1008.4 |
| 20260505060404 | 58 | 0 | 0.0 | 6.0 | 0.00 | 0.00 | 0.00 | 33 | 1008.3 |
| 20260505060304 | 58 | 0 | 0.0 | 6.0 | 0.00 | 0.00 | 0.00 | 33 | 1008.3 |
| 20260505060204 | 58 | 0 | 0.0 | 6.0 | 0.00 | 0.00 | 0.00 | 33 | 1008.3 |
| 20260505060104 | 58 | 0 | 0.0 | 6.0 | 0.00 | 0.00 | 0.00 | 33 | 1008.3 |
| 20260505060004 | 58 | 0 | 0.0 | 6.0 | 0.00 | 0.00 | 0.00 | 33 | 1008.3 |
| 20260505055904 | 58 | 0 | 0.0 | 6.0 | 0.00 | 0.00 | 0.00 | 33 | 1008.3 |
| 20260505055804 | 58 | 0 | 0.0 | 6.0 | 0.00 | 0.00 | 0.00 | 33 | 1008.3 |
| 20260505055704 | 58 | 0 | 0.0 | 6.0 | 0.00 | 0.00 | 0.00 | 33 | 1008.3 |
| 20260505055604 | 58 | 0 | 0.0 | 6.0 | 0.00 | 0.00 | 0.00 | 33 | 1008.4 |
| 20260505055504 | 58 | 0 | 0.0 | 6.0 | 0.00 | 0.00 | 0.00 | 33 | 1008.4 |
| 20260505055404 | 58 | 0 | 0.0 | 6.0 | 0.00 | 0.00 | 0.00 | 33 | 1008.4 |
| 20260505055304 | 58 | 0 | 0.0 | 6.0 | 0.00 | 0.00 | 0.00 | 33 | 1008.4 |
| 20260505055204 | 58 | 0 | 0.0 | 6.0 | 0.00 | 0.00 | 0.00 | 33 | 1008.4 |
| 20260505055125 | 58 | 0 | 0.0 | 6.0 | 0.00 | 0.00 | 0.00 | 33 | 1008.4 |
| 20260505055025 | 58 | 0 | 0.0 | 6.0 | 0.00 | 0.00 | 0.00 | 33 | 1008.4 |
| 20260505054925 | 58 | 0 | 0.0 | 6.0 | 0.00 | 0.00 | 0.00 | 33 | 1008.4 |
| 20260505054825 | 58 | 0 | 0.0 | 6.0 | 0.00 | 0.00 | 0.00 | 33 | 1008.4 |
| 20260505054725 | 58 | 0 | 0.0 | 6.0 | 0.00 | 0.00 | 0.00 | 33 | 1008.4 |
| 20260505054603 | 58 | 0 | 0.0 | 6.0 | 0.00 | 0.00 | 0.00 | 33 | 1008.4 |
| 20260505054504 | 58 | 0 | 0.0 | 6.0 | 0.00 | 0.00 | 0.00 | 33 | 1008.4 |
| 20260505054403 | 58 | 0 | 0.0 | 6.0 | 0.00 | 0.00 | 0.00 | 33 | 1008.4 |
| 20260505054303 | 58 | 0 | 0.0 | 6.0 | 0.00 | 0.00 | 0.00 | 33 | 1008.4 |
| 20260505054204 | 58 | 0 | 0.0 | 6.0 | 0.00 | 0.00 | 0.00 | 33 | 1008.4 |
| 20260505054104 | 58 | 0 | 0.0 | 6.0 | 0.00 | 0.00 | 0.00 | 33 | 1008.4 |
| 20260505054004 | 58 | 0 | 0.0 | 6.0 | 0.00 | 0.00 | 0.00 | 33 | 1008.4 |
| 20260505053904 | 58 | 0 | 0.0 | 6.0 | 0.00 | 0.00 | 0.00 | 33 | 1008.4 |
| 20260505053804 | 58 | 0 | 0.0 | 6.0 | 0.00 | 0.00 | 0.00 | 33 | 1008.4 |
| 20260505053704 | 58 | 0 | 0.0 | 6.0 | 0.00 | 0.00 | 0.00 | 33 | 1008.4 |
| 20260505053604 | 58 | 0 | 0.0 | 6.0 | 0.00 | 0.00 | 0.00 | 33 | 1008.3 |
| 20260505053504 | 58 | 0 | 0.0 | 6.0 | 0.00 | 0.00 | 0.00 | 33 | 1008.4 |
| 20260505053404 | 58 | 0 | 0.0 | 6.0 | 0.00 | 0.00 | 0.00 | 33 | 1008.4 |
| 20260505053304 | 58 | 0 | 0.0 | 6.0 | 0.00 | 0.00 | 0.00 | 33 | 1008.3 |
| 20260505053204 | 58 | 0 | 0.0 | 6.0 | 0.00 | 0.00 | 0.00 | 33 | 1008.3 |
| 20260505053125 | 58 | 0 | 0.0 | 6.0 | 0.00 | 0.00 | 0.00 | 33 | 1008.3 |
| 20260505053025 | 58 | 0 | 0.0 | 6.0 | 0.00 | 0.00 | 0.00 | 33 | 1008.4 |
| 20260505052925 | 58 | 0 | 0.0 | 6.0 | 0.00 | 0.00 | 0.00 | 33 | 1008.4 |
| 20260505052825 | 58 | 0 | 0.0 | 6.0 | 0.00 | 0.00 | 0.00 | 33 | 1008.4 |
| 20260505052725 | 58 | 0 | 0.0 | 6.0 | 0.00 | 0.00 | 0.00 | 33 | 1008.4 |
| 20260505052625 | 58 | 0 | 0.0 | 6.0 | 0.00 | 0.00 | 0.00 | 33 | 1008.5 |
| 20260505052525 | 58 | 0 | 0.0 | 6.0 | 0.00 | 0.00 | 0.00 | 33 | 1008.5 |
| 20260505052425 | 58 | 0 | 0.0 | 6.0 | 0.00 | 0.00 | 0.00 | 33 | 1008.5 |
| 20260505052325 | 58 | 0 | 0.0 | 6.0 | 0.00 | 0.00 | 0.00 | 33 | 1008.5 |
| 20260505052225 | 58 | 0 | 0.0 | 6.0 | 0.00 | 0.00 | 0.00 | 33 | 1008.5 |
| 20260505052103 | 58 | 0 | 0.0 | 6.0 | 0.00 | 0.00 | 0.00 | 33 | 1008.5 |
| 20260505052004 | 58 | 0 | 0.0 | 6.0 | 0.00 | 0.00 | 0.00 | 33 | 1008.5 |
| 20260505051903 | 58 | 0 | 0.0 | 6.0 | 0.00 | 0.00 | 0.00 | 33 | 1008.5 |
| 20260505051803 | 58 | 0 | 0.0 | 6.0 | 0.00 | 0.00 | 0.00 | 33 | 1008.5 |
| 20260505051704 | 58 | 0 | 0.0 | 6.0 | 0.00 | 0.00 | 0.00 | 33 | 1008.6 |
| 20260505051603 | 58 | 0 | 0.0 | 6.0 | 0.00 | 0.00 | 0.00 | 33 | 1008.6 |
| 20260505051504 | 58 | 0 | 0.0 | 6.0 | 0.00 | 0.00 | 0.00 | 33 | 1008.5 |
| 20260505051403 | 58 | 0 | 0.0 | 6.0 | 0.00 | 0.00 | 0.00 | 33 | 1008.6 |
| 20260505051303 | 58 | 0 | 0.0 | 6.0 | 0.00 | 0.00 | 0.00 | 33 | 1008.6 |
| 20260505051203 | 58 | 0 | 0.0 | 6.0 | 0.00 | 0.00 | 0.00 | 33 | 1008.6 |
| 20260505051103 | 58 | 0 | 0.0 | 6.0 | 0.00 | 0.00 | 0.00 | 33 | 1008.6 |
| 20260505051003 | 58 | 0 | 0.0 | 6.0 | 0.00 | 0.00 | 0.00 | 33 | 1008.6 |
| 20260505050903 | 58 | 0 | 0.0 | 6.0 | 0.00 | 0.00 | 0.00 | 33 | 1008.6 |
| 20260505050803 | 58 | 0 | 0.0 | 6.0 | 0.00 | 0.00 | 0.00 | 33 | 1008.6 |
| 20260505050703 | 58 | 0 | 0.0 | 6.0 | 0.00 | 0.00 | 0.00 | 33 | 1008.6 |
| 20260505050603 | 58 | 0 | 0.0 | 6.0 | 0.00 | 0.00 | 0.00 | 33 | 1008.6 |
| 20260505050503 | 58 | 0 | 0.0 | 6.0 | 0.00 | 0.00 | 0.00 | 33 | 1008.7 |
| 20260505050403 | 58 | 0 | 0.0 | 6.0 | 0.00 | 0.00 | 0.00 | 33 | 1008.6 |
| 20260505050303 | 58 | 0 | 0.0 | 6.0 | 0.00 | 0.00 | 0.00 | 33 | 1008.6 |
| 20260505050203 | 58 | 0 | 0.0 | 6.0 | 0.00 | 0.00 | 0.00 | 33 | 1008.6 |
| 20260505050104 | 58 | 0 | 0.0 | 6.0 | 0.00 | 0.00 | 0.00 | 33 | 1008.6 |
| 20260505041724 | 58 | 0 | 0.0 | 6.0 | 0.00 | 0.00 | 0.00 | 33 | 1008.7 |
| 20260505041603 | 58 | 0 | 0.0 | 6.0 | 0.00 | 0.00 | 0.00 | 33 | 1008.7 |
| 20260505041503 | 58 | 0 | 0.0 | 6.0 | 0.00 | 0.00 | 0.00 | 33 | 1008.8 |
| 20260505041403 | 58 | 0 | 0.0 | 6.0 | 0.00 | 0.00 | 0.00 | 33 | 1008.8 |
| 20260505041303 | 58 | 0 | 0.0 | 6.0 | 0.00 | 0.00 | 0.00 | 33 | 1008.8 |
| 20260505041203 | 58 | 0 | 0.0 | 6.0 | 0.00 | 0.00 | 0.00 | 33 | 1008.7 |
| 20260505041103 | 58 | 0 | 0.0 | 6.0 | 0.00 | 0.00 | 0.00 | 33 | 1008.7 |
| 20260505041003 | 58 | 0 | 0.0 | 6.0 | 0.00 | 0.00 | 0.00 | 33 | 1008.7 |
| 20260505040903 | 58 | 0 | 0.0 | 6.0 | 0.00 | 0.00 | 0.00 | 33 | 1008.7 |
| 20260505040803 | 58 | 0 | 0.0 | 6.0 | 0.00 | 0.00 | 0.00 | 33 | 1008.7 |
| 20260505040703 | 58 | 0 | 0.0 | 6.0 | 0.00 | 0.00 | 0.00 | 33 | 1008.7 |
| 20260505040603 | 58 | 0 | 0.0 | 6.0 | 0.00 | 0.00 | 0.00 | 33 | 1008.7 |
| 20260505040503 | 58 | 0 | 0.0 | 6.0 | 0.00 | 0.00 | 0.00 | 33 | 1008.7 |
| 20260505040403 | 58 | 0 | 0.0 | 6.0 | 0.00 | 0.00 | 0.00 | 33 | 1008.7 |
| 20260505040303 | 58 | 0 | 0.0 | 6.0 | 0.00 | 0.00 | 0.00 | 33 | 1008.7 |
| 20260505040203 | 58 | 0 | 0.0 | 6.0 | 0.00 | 0.00 | 0.00 | 33 | 1008.7 |
| 20260505040103 | 58 | 0 | 0.0 | 6.0 | 0.00 | 0.00 | 0.00 | 33 | 1008.8 |
| 20260505040005 | 58 | 0 | 0.0 | 6.0 | 0.00 | 0.00 | 0.00 | 33 | 1008.8 |
| 20260505035903 | 58 | 0 | 0.0 | 6.0 | 0.00 | 0.00 | 0.00 | 33 | 1008.8 |
| 20260505035803 | 58 | 0 | 0.0 | 6.0 | 0.00 | 0.00 | 0.00 | 33 | 1008.8 |
| 20260505035704 | 58 | 0 | 0.0 | 6.0 | 0.00 | 0.00 | 0.00 | 33 | 1008.8 |
| 20260505035604 | 58 | 0 | 0.0 | 6.0 | 0.00 | 0.00 | 0.00 | 33 | 1008.7 |
| 20260505035504 | 58 | 0 | 0.0 | 6.0 | 0.00 | 0.00 | 0.00 | 33 | 1008.7 |
| 20260505035404 | 58 | 0 | 0.0 | 6.0 | 0.00 | 0.00 | 0.00 | 33 | 1008.7 |
| 20260505035304 | 58 | 0 | 0.0 | 6.0 | 0.00 | 0.00 | 0.00 | 33 | 1008.8 |
| 20260505035204 | 58 | 0 | 0.0 | 6.0 | 0.00 | 0.00 | 0.00 | 33 | 1008.8 |
| 20260505035104 | 58 | 0 | 0.0 | 6.0 | 0.00 | 0.00 | 0.00 | 33 | 1008.8 |
| 20260505035004 | 58 | 0 | 0.0 | 6.0 | 0.00 | 0.00 | 0.00 | 33 | 1008.8 |
| 20260505034904 | 58 | 0 | 0.0 | 6.0 | 0.00 | 0.00 | 0.00 | 33 | 1008.8 |
| 20260505034804 | 58 | 0 | 0.0 | 6.0 | 0.00 | 0.00 | 0.00 | 33 | 1008.8 |
| 20260505034704 | 58 | 0 | 0.0 | 6.0 | 0.00 | 0.00 | 0.00 | 33 | 1008.8 |
| 20260505034604 | 58 | 0 | 0.0 | 6.0 | 0.00 | 0.00 | 0.00 | 33 | 1008.7 |
| 20260505034504 | 58 | 0 | 0.0 | 6.0 | 0.00 | 0.00 | 0.00 | 33 | 1008.7 |
| 20260505034404 | 58 | 0 | 0.0 | 6.0 | 0.00 | 0.00 | 0.00 | 33 | 1008.7 |
| 20260505034304 | 58 | 0 | 0.0 | 6.0 | 0.00 | 0.00 | 0.00 | 33 | 1008.8 |
| 20260505034204 | 58 | 0 | 0.0 | 6.0 | 0.00 | 0.00 | 0.00 | 33 | 1008.8 |
| 20260505034103 | 58 | 0 | 0.0 | 6.0 | 0.00 | 0.00 | 0.00 | 33 | 1008.8 |
| 20260505034003 | 58 | 0 | 0.0 | 6.0 | 0.00 | 0.00 | 0.00 | 33 | 1008.8 |
| 20260505033904 | 58 | 0 | 0.0 | 6.0 | 0.00 | 0.00 | 0.00 | 33 | 1008.8 |
| 20260505033804 | 58 | 0 | 0.0 | 6.0 | 0.00 | 0.00 | 0.00 | 33 | 1008.8 |
| 20260505033704 | 58 | 0 | 0.0 | 6.0 | 0.00 | 0.00 | 0.00 | 33 | 1008.9 |
| 20260505033604 | 58 | 0 | 0.0 | 6.0 | 0.00 | 0.00 | 0.00 | 33 | 1008.9 |
| 20260505033504 | 58 | 0 | 0.0 | 6.0 | 0.00 | 0.00 | 0.00 | 33 | 1008.8 |
| 20260505033409 | 58 | 0 | 0.0 | 6.0 | 0.00 | 0.00 | 0.00 | 33 | 1008.8 |
| 20260505033325 | 58 | 0 | 0.0 | 6.0 | 0.00 | 0.00 | 0.00 | 33 | 1008.8 |
| 20260505033225 | 58 | 0 | 0.0 | 6.0 | 0.00 | 0.00 | 0.00 | 33 | 1008.8 |
| 20260505033125 | 58 | 0 | 0.0 | 6.0 | 0.00 | 0.00 | 0.00 | 33 | 1008.8 |
| 20260505033025 | 58 | 0 | 0.0 | 6.0 | 0.00 | 0.00 | 0.00 | 33 | 1008.9 |
| 20260505032925 | 58 | 0 | 0.0 | 6.0 | 0.00 | 0.00 | 0.00 | 33 | 1008.9 |
| 20260505032804 | 58 | 0 | 0.0 | 6.0 | 0.00 | 0.00 | 0.00 | 33 | 1008.9 |
| 20260505032704 | 58 | 0 | 0.0 | 6.0 | 0.00 | 0.00 | 0.00 | 33 | 1008.9 |
| 20260505032604 | 58 | 0 | 0.0 | 6.0 | 0.00 | 0.00 | 0.00 | 33 | 1008.9 |
| 20260505032504 | 58 | 0 | 0.0 | 6.0 | 0.00 | 0.00 | 0.00 | 33 | 1008.8 |
| 20260505032404 | 58 | 0 | 0.0 | 6.0 | 0.00 | 0.00 | 0.00 | 33 | 1008.8 |
| 20260505032304 | 58 | 0 | 0.0 | 6.0 | 0.00 | 0.00 | 0.00 | 33 | 1008.9 |
| 20260505032203 | 58 | 0 | 0.0 | 6.0 | 0.00 | 0.00 | 0.00 | 33 | 1008.8 |
| 20260505032103 | 58 | 0 | 0.0 | 6.0 | 0.00 | 0.00 | 0.00 | 33 | 1008.8 |
| 20260505032004 | 58 | 0 | 0.0 | 6.0 | 0.00 | 0.00 | 0.00 | 33 | 1008.8 |
| 20260505031903 | 58 | 0 | 0.0 | 6.0 | 0.00 | 0.00 | 0.00 | 33 | 1008.8 |
| 20260505031703 | 58 | 0 | 0.0 | 6.0 | 0.00 | 0.00 | 0.00 | 33 | 1008.8 |
| 20260505031603 | 58 | 0 | 0.0 | 6.0 | 0.00 | 0.00 | 0.00 | 33 | 1008.8 |
| 20260505031503 | 58 | 0 | 0.0 | 6.0 | 0.00 | 0.00 | 0.00 | 33 | 1008.8 |
| 20260505031403 | 58 | 0 | 0.0 | 6.0 | 0.00 | 0.00 | 0.00 | 33 | 1008.8 |
| 20260505031303 | 58 | 0 | 0.0 | 6.0 | 0.00 | 0.00 | 0.00 | 33 | 1008.8 |
| 20260505031203 | 58 | 0 | 0.0 | 6.0 | 0.00 | 0.00 | 0.00 | 33 | 1008.8 |
| 20260505031104 | 58 | 0 | 0.0 | 6.0 | 0.00 | 0.00 | 0.00 | 33 | 1008.8 |
| 20260505031004 | 58 | 0 | 0.0 | 6.0 | 0.00 | 0.00 | 0.00 | 33 | 1008.8 |
| 20260505030904 | 58 | 0 | 0.0 | 6.0 | 0.00 | 0.00 | 0.00 | 33 | 1008.8 |
| 20260505030804 | 58 | 0 | 0.0 | 6.0 | 0.00 | 0.00 | 0.00 | 33 | 1008.8 |
| 20260505030704 | 58 | 0 | 0.0 | 6.0 | 0.00 | 0.00 | 0.00 | 33 | 1008.8 |
| 20260505030604 | 58 | 0 | 0.0 | 6.0 | 0.00 | 0.00 | 0.00 | 33 | 1008.8 |
| 20260505030504 | 58 | 0 | 0.0 | 6.0 | 0.00 | 0.00 | 0.00 | 33 | 1008.8 |
| 20260505030404 | 58 | 0 | 0.0 | 6.0 | 0.00 | 0.00 | 0.00 | 33 | 1008.7 |
| 20260505030304 | 58 | 0 | 0.0 | 6.0 | 0.00 | 0.00 | 0.00 | 33 | 1008.7 |
| 20260505030204 | 58 | 0 | 0.0 | 6.0 | 0.00 | 0.00 | 0.00 | 33 | 1008.7 |
| 20260505030104 | 58 | 0 | 0.0 | 6.0 | 0.00 | 0.00 | 0.00 | 33 | 1008.7 |
| 20260505030004 | 58 | 0 | 0.0 | 6.0 | 0.00 | 0.00 | 0.00 | 33 | 1008.7 |
| 20260505025904 | 58 | 0 | 0.0 | 6.0 | 0.00 | 0.00 | 0.00 | 33 | 1008.7 |
| 20260505025804 | 58 | 0 | 0.0 | 6.0 | 0.00 | 0.00 | 0.00 | 33 | 1008.7 |
| 20260505025704 | 58 | 0 | 0.0 | 6.0 | 0.00 | 0.00 | 0.00 | 33 | 1008.7 |
| 20260505025604 | 58 | 0 | 0.0 | 6.0 | 0.00 | 0.00 | 0.00 | 33 | 1008.7 |
| 20260505025525 | 58 | 0 | 0.0 | 6.0 | 0.00 | 0.00 | 0.00 | 33 | 1008.7 |
| 20260505025425 | 58 | 0 | 0.0 | 6.0 | 0.00 | 0.00 | 0.00 | 33 | 1008.8 |
| 20260505025325 | 58 | 0 | 0.0 | 6.0 | 0.00 | 0.00 | 0.00 | 33 | 1008.8 |
| 20260505025225 | 58 | 0 | 0.0 | 6.0 | 0.00 | 0.00 | 0.00 | 33 | 1008.8 |
| 20260505025125 | 58 | 0 | 0.0 | 6.0 | 0.00 | 0.00 | 0.00 | 33 | 1008.8 |
| 20260505025025 | 58 | 0 | 0.0 | 6.0 | 0.00 | 0.00 | 0.00 | 33 | 1008.8 |
| 20260505024925 | 58 | 0 | 0.0 | 6.0 | 0.00 | 0.00 | 0.00 | 33 | 1008.8 |
| 20260505024825 | 58 | 0 | 0.0 | 6.0 | 0.00 | 0.00 | 0.00 | 33 | 1008.8 |
| 20260505024725 | 58 | 0 | 0.0 | 6.0 | 0.00 | 0.00 | 0.00 | 33 | 1008.8 |
| 20260505024625 | 58 | 0 | 0.0 | 6.0 | 0.00 | 0.00 | 0.00 | 33 | 1008.8 |
| 20260505024525 | 58 | 0 | 0.0 | 6.0 | 0.00 | 0.00 | 0.00 | 33 | 1008.8 |
| 20260505024403 | 58 | 0 | 0.0 | 6.0 | 0.00 | 0.00 | 0.00 | 33 | 1008.7 |
| 20260505024303 | 58 | 0 | 0.0 | 6.0 | 0.00 | 0.00 | 0.00 | 33 | 1008.7 |
| 20260505024203 | 58 | 0 | 0.0 | 6.0 | 0.00 | 0.00 | 0.00 | 33 | 1008.7 |
| 20260505024103 | 58 | 0 | 0.0 | 6.0 | 0.00 | 0.00 | 0.00 | 33 | 1008.8 |
| 20260505024003 | 58 | 0 | 0.0 | 6.0 | 0.00 | 0.00 | 0.00 | 33 | 1008.8 |
| 20260505023903 | 58 | 0 | 0.0 | 6.0 | 0.00 | 0.00 | 0.00 | 33 | 1008.8 |
| 20260505023803 | 58 | 0 | 0.0 | 6.0 | 0.00 | 0.00 | 0.00 | 33 | 1008.8 |
| 20260505023703 | 58 | 0 | 0.0 | 6.0 | 0.00 | 0.00 | 0.00 | 33 | 1008.8 |
| 20260505023603 | 58 | 0 | 0.0 | 6.0 | 0.00 | 0.00 | 0.00 | 33 | 1008.8 |
| 20260505023503 | 58 | 0 | 0.0 | 6.0 | 0.00 | 0.00 | 0.00 | 33 | 1008.7 |
| 20260505023303 | 58 | 0 | 0.0 | 6.0 | 0.00 | 0.00 | 0.00 | 33 | 1008.8 |
| 20260505023203 | 58 | 0 | 0.0 | 6.0 | 0.00 | 0.00 | 0.00 | 33 | 1008.8 |
| 20260505023103 | 58 | 0 | 0.0 | 6.0 | 0.00 | 0.00 | 0.00 | 33 | 1008.8 |
| 20260505023004 | 58 | 0 | 0.0 | 6.0 | 0.00 | 0.00 | 0.00 | 33 | 1008.8 |
| 20260505022903 | 58 | 0 | 0.0 | 6.0 | 0.00 | 0.00 | 0.00 | 33 | 1008.8 |
| 20260505022803 | 58 | 0 | 0.0 | 6.0 | 0.00 | 0.00 | 0.00 | 33 | 1008.9 |
| 20260505022703 | 58 | 0 | 0.0 | 6.0 | 0.00 | 0.00 | 0.00 | 33 | 1008.9 |
| 20260505022603 | 58 | 0 | 0.0 | 6.0 | 0.00 | 0.00 | 0.00 | 33 | 1008.9 |
| 20260505022503 | 58 | 0 | 0.0 | 6.0 | 0.00 | 0.00 | 0.00 | 33 | 1008.9 |
| 20260505022403 | 58 | 0 | 0.0 | 6.0 | 0.00 | 0.00 | 0.00 | 33 | 1008.9 |
| 20260505022304 | 58 | 0 | 0.0 | 6.0 | 0.00 | 0.00 | 0.00 | 33 | 1008.9 |
| 20260505022203 | 58 | 0 | 0.0 | 6.0 | 0.00 | 0.00 | 0.00 | 33 | 1008.9 |
| 20260505022103 | 58 | 0 | 0.0 | 6.0 | 0.00 | 0.00 | 0.00 | 33 | 1008.9 |
| 20260505022003 | 58 | 0 | 0.0 | 6.0 | 0.00 | 0.00 | 0.00 | 33 | 1008.9 |
| 20260505021903 | 58 | 0 | 0.0 | 6.0 | 0.00 | 0.00 | 0.00 | 33 | 1008.9 |
| 20260505021703 | 58 | 0 | 0.0 | 6.0 | 0.00 | 0.00 | 0.00 | 33 | 1008.9 |
| 20260505021603 | 58 | 0 | 0.0 | 6.0 | 0.00 | 0.00 | 0.00 | 33 | 1008.9 |
| 20260505021504 | 58 | 0 | 0.0 | 6.0 | 0.00 | 0.00 | 0.00 | 33 | 1008.9 |
| 20260505021404 | 58 | 0 | 0.0 | 6.0 | 0.00 | 0.00 | 0.00 | 33 | 1008.9 |
| 20260505021304 | 58 | 0 | 0.0 | 6.0 | 0.00 | 0.00 | 0.00 | 33 | 1008.9 |
| 20260505021204 | 58 | 0 | 0.0 | 6.0 | 0.00 | 0.00 | 0.00 | 33 | 1008.8 |
| 20260505021104 | 58 | 0 | 0.0 | 6.0 | 0.00 | 0.00 | 0.00 | 33 | 1008.8 |
| 20260505021004 | 58 | 0 | 0.0 | 6.0 | 0.00 | 0.00 | 0.00 | 33 | 1008.8 |
| 20260505020904 | 58 | 0 | 0.0 | 6.0 | 0.00 | 0.00 | 0.00 | 33 | 1008.8 |
| 20260505020804 | 58 | 0 | 0.0 | 6.0 | 0.00 | 0.00 | 0.00 | 33 | 1008.8 |
| 20260505020704 | 58 | 0 | 0.0 | 6.0 | 0.00 | 0.00 | 0.00 | 33 | 1008.8 |
| 20260505020604 | 58 | 0 | 0.0 | 6.0 | 0.00 | 0.00 | 0.00 | 33 | 1008.8 |
| 20260505020504 | 58 | 0 | 0.0 | 6.0 | 0.00 | 0.00 | 0.00 | 33 | 1008.8 |
| 20260505020404 | 58 | 0 | 0.0 | 6.0 | 0.00 | 0.00 | 0.00 | 33 | 1008.8 |
| 20260505020304 | 58 | 0 | 0.0 | 6.0 | 0.00 | 0.00 | 0.00 | 33 | 1008.8 |
| 20260505020204 | 58 | 0 | 0.0 | 6.0 | 0.00 | 0.00 | 0.00 | 33 | 1008.8 |
| 20260505020104 | 58 | 0 | 0.0 | 6.0 | 0.00 | 0.00 | 0.00 | 33 | 1008.8 |
| 20260505020004 | 58 | 0 | 0.0 | 6.0 | 0.00 | 0.00 | 0.00 | 33 | 1008.8 |
| 20260505015904 | 58 | 0 | 0.0 | 6.0 | 0.00 | 0.00 | 0.00 | 33 | 1008.8 |
| 20260505015804 | 58 | 0 | 0.0 | 6.0 | 0.00 | 0.00 | 0.00 | 33 | 1008.8 |
| 20260505015704 | 58 | 0 | 0.0 | 6.0 | 0.00 | 0.00 | 0.00 | 33 | 1008.8 |
| 20260505015604 | 58 | 0 | 0.0 | 6.0 | 0.00 | 0.00 | 0.00 | 33 | 1008.8 |
| 20260505015504 | 58 | 0 | 0.0 | 6.0 | 0.00 | 0.00 | 0.00 | 33 | 1008.8 |
| 20260505015404 | 58 | 0 | 0.0 | 6.0 | 0.00 | 0.00 | 0.00 | 33 | 1008.8 |
| 20260505015304 | 58 | 0 | 0.0 | 6.0 | 0.00 | 0.00 | 0.00 | 33 | 1008.7 |
| 20260505015204 | 58 | 0 | 0.0 | 6.0 | 0.00 | 0.00 | 0.00 | 33 | 1008.7 |
| 20260505015104 | 58 | 0 | 0.0 | 6.0 | 0.00 | 0.00 | 0.00 | 33 | 1008.7 |
| 20260505015004 | 58 | 0 | 0.0 | 6.0 | 0.00 | 0.00 | 0.00 | 33 | 1008.8 |
| 20260505014904 | 58 | 0 | 0.0 | 6.0 | 0.00 | 0.00 | 0.00 | 33 | 1008.8 |
| 20260505014804 | 58 | 0 | 0.0 | 6.0 | 0.00 | 0.00 | 0.00 | 33 | 1008.7 |
| 20260505014704 | 58 | 0 | 0.0 | 6.0 | 0.00 | 0.00 | 0.00 | 33 | 1008.7 |
| 20260505014625 | 58 | 0 | 0.0 | 6.0 | 0.00 | 0.00 | 0.00 | 33 | 1008.7 |
| 20260505014525 | 58 | 0 | 0.0 | 6.0 | 0.00 | 0.00 | 0.00 | 33 | 1008.7 |
| 20260505014425 | 58 | 0 | 0.0 | 6.0 | 0.00 | 0.00 | 0.00 | 33 | 1008.7 |
| 20260505014325 | 58 | 0 | 0.0 | 6.0 | 0.00 | 0.00 | 0.00 | 33 | 1008.7 |
| 20260505014225 | 58 | 0 | 0.0 | 6.0 | 0.00 | 0.00 | 0.00 | 33 | 1008.7 |
| 20260505014104 | 58 | 0 | 0.0 | 6.0 | 0.00 | 0.00 | 0.00 | 33 | 1008.7 |
| 20260505014004 | 58 | 0 | 0.0 | 6.0 | 0.00 | 0.00 | 0.00 | 33 | 1008.7 |
| 20260505013904 | 58 | 0 | 0.0 | 6.0 | 0.00 | 0.00 | 0.00 | 33 | 1008.7 |
| 20260505013803 | 58 | 0 | 0.0 | 6.0 | 0.00 | 0.00 | 0.00 | 33 | 1008.7 |
| 20260505013704 | 58 | 0 | 0.0 | 6.0 | 0.00 | 0.00 | 0.00 | 33 | 1008.7 |
| 20260505013624 | 58 | 0 | 0.0 | 6.0 | 0.00 | 0.00 | 0.00 | 33 | 1008.7 |
| 20260505013524 | 58 | 0 | 0.0 | 6.0 | 0.00 | 0.00 | 0.00 | 33 | 1008.6 |
| 20260505013425 | 58 | 0 | 0.0 | 6.0 | 0.00 | 0.00 | 0.00 | 33 | 1008.6 |
| 20260505013324 | 58 | 0 | 0.0 | 6.0 | 0.00 | 0.00 | 0.00 | 33 | 1008.6 |
| 20260505013225 | 58 | 0 | 0.0 | 6.0 | 0.00 | 0.00 | 0.00 | 33 | 1008.6 |
| 20260505013124 | 58 | 0 | 0.0 | 6.0 | 0.00 | 0.00 | 0.00 | 33 | 1008.6 |
| 20260505013024 | 58 | 0 | 0.0 | 6.0 | 0.00 | 0.00 | 0.00 | 33 | 1008.6 |
| 20260505012924 | 58 | 0 | 0.0 | 6.0 | 0.00 | 0.00 | 0.00 | 33 | 1008.6 |
| 20260505012824 | 58 | 0 | 0.0 | 6.0 | 0.00 | 0.00 | 0.00 | 33 | 1008.5 |
| 20260505012724 | 58 | 0 | 0.0 | 6.0 | 0.00 | 0.00 | 0.00 | 33 | 1008.5 |
| 20260505012603 | 58 | 0 | 0.0 | 6.0 | 0.00 | 0.00 | 0.00 | 33 | 1008.5 |
| 20260505012503 | 58 | 0 | 0.0 | 6.0 | 0.00 | 0.00 | 0.00 | 33 | 1008.5 |
| 20260505012403 | 58 | 0 | 0.0 | 6.0 | 0.00 | 0.00 | 0.00 | 33 | 1008.5 |
| 20260505012304 | 58 | 0 | 0.0 | 6.0 | 0.00 | 0.00 | 0.00 | 33 | 1008.5 |
| 20260505012203 | 58 | 0 | 0.0 | 6.0 | 0.00 | 0.00 | 0.00 | 33 | 1008.5 |
| 20260505012103 | 58 | 0 | 0.0 | 6.0 | 0.00 | 0.00 | 0.00 | 33 | 1008.5 |
| 20260505012003 | 58 | 0 | 0.0 | 6.0 | 0.00 | 0.00 | 0.00 | 33 | 1008.5 |
| 20260505011903 | 58 | 0 | 0.0 | 6.0 | 0.00 | 0.00 | 0.00 | 33 | 1008.4 |
| 20260505011803 | 58 | 0 | 0.0 | 6.0 | 0.00 | 0.00 | 0.00 | 33 | 1008.4 |
| 20260505011703 | 58 | 0 | 0.0 | 6.0 | 0.00 | 0.00 | 0.00 | 33 | 1008.4 |
| 20260505011603 | 58 | 0 | 0.0 | 6.0 | 0.00 | 0.00 | 0.00 | 33 | 1008.4 |
| 20260505011504 | 58 | 0 | 0.0 | 6.0 | 0.00 | 0.00 | 0.00 | 33 | 1008.4 |
| 20260505011404 | 58 | 0 | 0.0 | 6.0 | 0.00 | 0.00 | 0.00 | 33 | 1008.4 |
| 20260505011304 | 58 | 0 | 0.0 | 6.0 | 0.00 | 0.00 | 0.00 | 33 | 1008.4 |
| 20260505011204 | 58 | 0 | 0.0 | 6.0 | 0.00 | 0.00 | 0.00 | 33 | 1008.4 |
| 20260505011125 | 58 | 0 | 0.0 | 6.0 | 0.00 | 0.00 | 0.00 | 33 | 1008.4 |
| 20260505011004 | 58 | 0 | 0.0 | 6.0 | 0.00 | 0.00 | 0.00 | 33 | 1008.3 |
| 20260505010904 | 58 | 0 | 0.0 | 6.0 | 0.00 | 0.00 | 0.00 | 33 | 1008.3 |
| 20260505010804 | 58 | 0 | 0.0 | 6.0 | 0.00 | 0.00 | 0.00 | 33 | 1008.3 |
| 20260505010704 | 58 | 0 | 0.0 | 6.0 | 0.00 | 0.00 | 0.00 | 33 | 1008.3 |
| 20260505010604 | 58 | 0 | 0.0 | 6.0 | 0.00 | 0.00 | 0.00 | 33 | 1008.3 |
| 20260505010504 | 58 | 0 | 0.0 | 6.0 | 0.00 | 0.00 | 0.00 | 33 | 1008.3 |
| 20260505010404 | 58 | 0 | 0.0 | 6.0 | 0.00 | 0.00 | 0.00 | 33 | 1008.2 |
| 20260505010304 | 58 | 0 | 0.0 | 6.0 | 0.00 | 0.00 | 0.00 | 33 | 1008.2 |
| 20260505010204 | 58 | 0 | 0.0 | 6.0 | 0.00 | 0.00 | 0.00 | 33 | 1008.3 |
| 20260505010104 | 58 | 0 | 0.0 | 6.0 | 0.00 | 0.00 | 0.00 | 33 | 1008.2 |
| 20260505010004 | 58 | 0 | 0.0 | 6.0 | 0.00 | 0.00 | 0.00 | 33 | 1008.2 |
| 20260505005904 | 58 | 0 | 0.0 | 6.0 | 0.00 | 0.00 | 0.00 | 33 | 1008.2 |
| 20260505005804 | 58 | 0 | 0.0 | 6.0 | 0.00 | 0.00 | 0.00 | 33 | 1008.2 |
| 20260505005704 | 58 | 0 | 0.0 | 6.0 | 0.00 | 0.00 | 0.00 | 33 | 1008.1 |
| 20260505005604 | 58 | 0 | 0.0 | 6.0 | 0.00 | 0.00 | 0.00 | 33 | 1008.1 |
| 20260505005504 | 58 | 0 | 0.0 | 6.0 | 0.00 | 0.00 | 0.00 | 33 | 1008.1 |
| 20260505005404 | 58 | 0 | 0.0 | 6.0 | 0.00 | 0.00 | 0.00 | 33 | 1008.1 |
| 20260505005304 | 58 | 0 | 0.0 | 6.0 | 0.00 | 0.00 | 0.00 | 33 | 1008.0 |
| 20260505005204 | 58 | 0 | 0.0 | 6.0 | 0.00 | 0.00 | 0.00 | 33 | 1008.0 |
| 20260505005104 | 58 | 0 | 0.0 | 6.0 | 0.00 | 0.00 | 0.00 | 33 | 1008.0 |
| 20260505005004 | 58 | 0 | 0.0 | 6.0 | 0.00 | 0.00 | 0.00 | 33 | 1008.1 |
| 20260505004904 | 58 | 0 | 0.0 | 6.0 | 0.00 | 0.00 | 0.00 | 33 | 1008.1 |
| 20260505004804 | 58 | 0 | 0.0 | 6.0 | 0.00 | 0.00 | 0.00 | 33 | 1008.0 |
| 20260505004704 | 58 | 0 | 0.0 | 6.0 | 0.00 | 0.00 | 0.00 | 33 | 1008.0 |
| 20260505004604 | 58 | 0 | 0.0 | 6.0 | 0.00 | 0.00 | 0.00 | 33 | 1008.0 |
| 20260505004503 | 58 | 0 | 0.0 | 6.0 | 0.00 | 0.00 | 0.00 | 33 | 1008.0 |
| 20260505004403 | 58 | 0 | 0.0 | 6.0 | 0.00 | 0.00 | 0.00 | 33 | 1008.0 |
| 20260505004303 | 58 | 0 | 0.0 | 6.0 | 0.00 | 0.00 | 0.00 | 33 | 1007.9 |
| 20260505004203 | 58 | 0 | 0.0 | 6.0 | 0.00 | 0.00 | 0.00 | 33 | 1007.9 |
| 20260505004103 | 58 | 0 | 0.0 | 6.0 | 0.00 | 0.00 | 0.00 | 33 | 1007.9 |
| 20260505004003 | 58 | 0 | 0.0 | 6.0 | 0.00 | 0.00 | 0.00 | 33 | 1007.9 |
| 20260505003903 | 58 | 0 | 0.0 | 6.0 | 0.00 | 0.00 | 0.00 | 33 | 1007.9 |
| 20260505003803 | 58 | 0 | 0.0 | 6.0 | 0.00 | 0.00 | 0.00 | 33 | 1007.9 |
| 20260505003703 | 58 | 0 | 0.0 | 6.0 | 0.00 | 0.00 | 0.00 | 33 | 1007.8 |
| 20260505003603 | 58 | 0 | 0.0 | 6.0 | 0.00 | 0.00 | 0.00 | 33 | 1007.8 |
| 20260505003503 | 58 | 0 | 0.0 | 6.0 | 0.00 | 0.00 | 0.00 | 33 | 1007.8 |
| 20260505003403 | 58 | 0 | 0.0 | 6.0 | 0.00 | 0.00 | 0.00 | 33 | 1007.8 |
| 20260505003303 | 58 | 0 | 0.0 | 6.0 | 0.00 | 0.00 | 0.00 | 33 | 1007.8 |
| 20260505003203 | 58 | 0 | 0.0 | 6.0 | 0.00 | 0.00 | 0.00 | 33 | 1007.7 |
| 20260505003103 | 58 | 0 | 0.0 | 6.0 | 0.00 | 0.00 | 0.00 | 33 | 1007.7 |
| 20260505003003 | 58 | 0 | 0.0 | 6.0 | 0.00 | 0.00 | 0.00 | 33 | 1007.7 |
| 20260505002903 | 58 | 0 | 0.0 | 6.0 | 0.00 | 0.00 | 0.00 | 33 | 1007.7 |
| 20260505002803 | 58 | 0 | 0.0 | 6.0 | 0.00 | 0.00 | 0.00 | 33 | 1007.6 |
| 20260505002703 | 58 | 0 | 0.0 | 6.0 | 0.00 | 0.00 | 0.00 | 33 | 1007.5 |
| 20260505002603 | 58 | 0 | 0.0 | 6.0 | 0.00 | 0.00 | 0.00 | 33 | 1007.5 |
| 20260505002503 | 58 | 0 | 0.0 | 6.0 | 0.00 | 0.00 | 0.00 | 33 | 1007.5 |
| 20260505002404 | 58 | 0 | 0.0 | 6.0 | 0.00 | 0.00 | 0.00 | 33 | 1007.5 |
| 20260505002304 | 58 | 0 | 0.0 | 6.0 | 0.00 | 0.00 | 0.00 | 33 | 1007.5 |
| 20260505002204 | 58 | 0 | 0.0 | 6.0 | 0.00 | 0.00 | 0.00 | 33 | 1007.4 |
| 20260505002104 | 58 | 0 | 0.0 | 6.0 | 0.00 | 0.00 | 0.00 | 33 | 1007.4 |
| 20260505002004 | 58 | 0 | 0.0 | 6.0 | 0.00 | 0.00 | 0.00 | 33 | 1007.3 |
| 20260505001925 | 58 | 0 | 0.0 | 6.0 | 0.00 | 0.00 | 0.00 | 33 | 1007.3 |
| 20260505001825 | 58 | 0 | 0.0 | 6.0 | 0.00 | 0.00 | 0.00 | 33 | 1007.3 |
| 20260505001725 | 58 | 0 | 0.0 | 6.0 | 0.00 | 0.00 | 0.00 | 33 | 1007.3 |
| 20260505001525 | 58 | 0 | 0.0 | 6.0 | 0.00 | 0.00 | 0.00 | 33 | 1007.3 |
| 20260505001404 | 58 | 0 | 0.0 | 6.0 | 0.00 | 0.00 | 0.00 | 33 | 1007.2 |
| 20260505001304 | 58 | 0 | 0.0 | 6.0 | 0.00 | 0.00 | 0.00 | 33 | 1007.2 |
| 20260505001204 | 58 | 0 | 0.0 | 6.0 | 0.00 | 0.00 | 0.00 | 33 | 1007.2 |
| 20260505001104 | 58 | 0 | 0.0 | 6.0 | 0.00 | 0.00 | 0.00 | 33 | 1007.2 |
| 20260505001004 | 58 | 0 | 0.0 | 6.0 | 0.00 | 0.00 | 0.00 | 33 | 1007.1 |
| 20260505000904 | 58 | 0 | 0.0 | 6.0 | 0.00 | 0.00 | 0.00 | 33 | 1007.1 |
| 20260505000804 | 58 | 0 | 0.0 | 6.0 | 0.00 | 0.00 | 0.00 | 33 | 1007.1 |
| 20260505000704 | 58 | 0 | 0.0 | 6.0 | 0.00 | 0.00 | 0.00 | 33 | 1007.1 |
| 20260505000604 | 58 | 0 | 0.0 | 6.0 | 0.00 | 0.00 | 0.00 | 33 | 1007.1 |
| 20260505000504 | 58 | 0 | 0.0 | 6.0 | 0.00 | 0.00 | 0.00 | 33 | 1007.1 |
| 20260505000405 | 58 | 0 | 0.0 | 6.0 | 0.00 | 0.00 | 0.00 | 33 | 1007.1 |
| 20260505000304 | 58 | 0 | 0.0 | 6.0 | 0.00 | 0.00 | 0.00 | 33 | 1007.1 |
| 20260505000204 | 58 | 0 | 0.0 | 6.0 | 0.00 | 0.00 | 0.00 | 33 | 1007.1 |
| 20260505000104 | 58 | 0 | 0.0 | 6.0 | 0.00 | 0.00 | 0.00 | 33 | 1007.1 |
| 20260505000004 | 58 | 0 | 0.0 | 6.0 | 0.00 | 0.00 | 0.00 | 33 | 1007.1 |
| 20260504235904 | 58 | 0 | 0.0 | 6.0 | 0.00 | 0.00 | 0.00 | 33 | 1007.1 |
| 20260504235804 | 58 | 0 | 0.0 | 6.0 | 0.00 | 0.00 | 0.00 | 33 | 1007.1 |
| 20260504235704 | 58 | 0 | 0.0 | 6.0 | 0.00 | 0.00 | 0.00 | 33 | 1007.1 |
| 20260504235604 | 58 | 0 | 0.0 | 6.0 | 0.00 | 0.00 | 0.00 | 33 | 1007.0 |
| 20260504235504 | 58 | 0 | 0.0 | 6.0 | 0.00 | 0.00 | 0.00 | 33 | 1007.0 |
| 20260504235403 | 58 | 0 | 0.0 | 6.0 | 0.00 | 0.00 | 0.00 | 33 | 1007.0 |
| 20260504235304 | 58 | 0 | 0.0 | 6.0 | 0.00 | 0.00 | 0.00 | 33 | 1006.9 |
| 20260504235203 | 58 | 0 | 0.0 | 6.0 | 0.00 | 0.00 | 0.00 | 33 | 1006.9 |
| 20260504235103 | 58 | 0 | 0.0 | 6.0 | 0.00 | 0.00 | 0.00 | 33 | 1006.9 |
| 20260504235003 | 58 | 0 | 0.0 | 6.0 | 0.00 | 0.00 | 0.00 | 33 | 1006.9 |
| 20260504234904 | 58 | 0 | 0.0 | 6.0 | 0.00 | 0.00 | 0.00 | 33 | 1006.9 |
| 20260504234803 | 58 | 0 | 0.0 | 6.0 | 0.00 | 0.00 | 0.00 | 33 | 1006.8 |
| 20260504234703 | 58 | 0 | 0.0 | 6.0 | 0.00 | 0.00 | 0.00 | 33 | 1006.8 |
| 20260504234603 | 58 | 0 | 0.0 | 6.0 | 0.00 | 0.00 | 0.00 | 33 | 1006.8 |
| 20260504234504 | 58 | 0 | 0.0 | 6.0 | 0.00 | 0.00 | 0.00 | 33 | 1006.8 |
| 20260504234403 | 58 | 0 | 0.0 | 6.0 | 0.00 | 0.00 | 0.00 | 33 | 1006.8 |
| 20260504234303 | 58 | 0 | 0.0 | 6.0 | 0.00 | 0.00 | 0.00 | 33 | 1006.8 |
| 20260504234203 | 58 | 0 | 0.0 | 6.0 | 0.00 | 0.00 | 0.00 | 33 | 1006.8 |
| 20260504234103 | 58 | 0 | 0.0 | 6.0 | 0.00 | 0.00 | 0.00 | 33 | 1006.8 |
| 20260504234003 | 58 | 0 | 0.0 | 6.0 | 0.00 | 0.00 | 0.00 | 33 | 1006.8 |
| 20260504233903 | 58 | 0 | 0.0 | 6.0 | 0.00 | 0.00 | 0.00 | 33 | 1006.8 |
| 20260504233803 | 58 | 0 | 0.0 | 6.0 | 0.00 | 0.00 | 0.00 | 33 | 1006.7 |
| 20260504233703 | 58 | 0 | 0.0 | 6.0 | 0.00 | 0.00 | 0.00 | 33 | 1006.7 |
| 20260504233603 | 58 | 0 | 0.0 | 6.0 | 0.00 | 0.00 | 0.00 | 33 | 1006.7 |
| 20260504233503 | 58 | 0 | 0.0 | 6.0 | 0.00 | 0.00 | 0.00 | 33 | 1006.6 |
| 20260504233403 | 58 | 0 | 0.0 | 6.0 | 0.00 | 0.00 | 0.00 | 33 | 1006.6 |
| 20260504233303 | 58 | 0 | 0.0 | 6.0 | 0.00 | 0.00 | 0.00 | 33 | 1006.6 |
| 20260504233203 | 58 | 0 | 0.0 | 6.0 | 0.00 | 0.00 | 0.00 | 33 | 1006.6 |
| 20260504233103 | 58 | 0 | 0.0 | 6.0 | 0.00 | 0.00 | 0.00 | 33 | 1006.6 |
| 20260504233003 | 58 | 0 | 0.0 | 6.0 | 0.00 | 0.00 | 0.00 | 33 | 1006.5 |
| 20260504232903 | 58 | 0 | 0.0 | 6.0 | 0.00 | 0.00 | 0.00 | 33 | 1006.5 |
| 20260504232803 | 58 | 0 | 0.0 | 6.0 | 0.00 | 0.00 | 0.00 | 33 | 1006.5 |
| 20260504232703 | 58 | 0 | 0.0 | 6.0 | 0.00 | 0.00 | 0.00 | 33 | 1006.5 |
| 20260504232603 | 58 | 0 | 0.0 | 6.0 | 0.00 | 0.00 | 0.00 | 33 | 1006.4 |
| 20260504232503 | 58 | 0 | 0.0 | 6.0 | 0.00 | 0.00 | 0.00 | 33 | 1006.4 |
| 20260504232403 | 58 | 0 | 0.0 | 6.0 | 0.00 | 0.00 | 0.00 | 33 | 1006.4 |
| 20260504232304 | 58 | 0 | 0.0 | 6.0 | 0.00 | 0.00 | 0.00 | 33 | 1006.4 |
| 20260504232203 | 58 | 0 | 0.0 | 6.0 | 0.00 | 0.00 | 0.00 | 33 | 1006.4 |
| 20260504232103 | 58 | 0 | 0.0 | 6.0 | 0.00 | 0.00 | 0.00 | 33 | 1006.4 |
| 20260504232003 | 58 | 0 | 0.0 | 6.0 | 0.00 | 0.00 | 0.00 | 33 | 1006.4 |
| 20260504231903 | 58 | 0 | 0.0 | 6.0 | 0.00 | 0.00 | 0.00 | 33 | 1006.4 |
| 20260504231803 | 58 | 0 | 0.0 | 6.0 | 0.00 | 0.00 | 0.00 | 33 | 1006.4 |
| 20260504231703 | 58 | 0 | 0.0 | 6.0 | 0.00 | 0.00 | 0.00 | 33 | 1006.3 |
| 20260504231603 | 58 | 0 | 0.0 | 6.0 | 0.00 | 0.00 | 0.00 | 33 | 1006.3 |
| 20260504231504 | 58 | 0 | 0.0 | 6.0 | 0.00 | 0.00 | 0.00 | 33 | 1006.3 |
| 20260504231425 | 58 | 0 | 0.0 | 6.0 | 0.00 | 0.00 | 0.00 | 33 | 1006.3 |
| 20260504231325 | 58 | 0 | 0.0 | 6.0 | 0.00 | 0.00 | 0.00 | 33 | 1006.3 |
| 20260504231225 | 58 | 0 | 0.0 | 6.0 | 0.00 | 0.00 | 0.00 | 33 | 1006.2 |
| 20260504231125 | 58 | 0 | 0.0 | 6.0 | 0.00 | 0.00 | 0.00 | 33 | 1006.2 |
| 20260504231025 | 58 | 0 | 0.0 | 6.0 | 0.00 | 0.00 | 0.00 | 33 | 1006.3 |
| 20260504230903 | 58 | 0 | 0.0 | 6.0 | 0.00 | 0.00 | 0.00 | 33 | 1006.2 |
| 20260504230803 | 58 | 0 | 0.0 | 6.0 | 0.00 | 0.00 | 0.00 | 33 | 1006.2 |
| 20260504230703 | 58 | 0 | 0.0 | 6.0 | 0.00 | 0.00 | 0.00 | 33 | 1006.2 |
| 20260504230603 | 58 | 0 | 0.0 | 6.0 | 0.00 | 0.00 | 0.00 | 33 | 1006.2 |
| 20260504230503 | 58 | 0 | 0.0 | 6.0 | 0.00 | 0.00 | 0.00 | 33 | 1006.1 |
| 20260504230404 | 58 | 0 | 0.0 | 6.0 | 0.00 | 0.00 | 0.00 | 33 | 1006.2 |
| 20260504230303 | 58 | 0 | 0.0 | 6.0 | 0.00 | 0.00 | 0.00 | 33 | 1006.2 |
| 20260504230204 | 58 | 0 | 0.0 | 6.0 | 0.00 | 0.00 | 0.00 | 33 | 1006.2 |
| 20260504230104 | 58 | 0 | 0.0 | 6.0 | 0.00 | 0.00 | 0.00 | 33 | 1006.2 |
| 20260504230004 | 58 | 0 | 0.0 | 6.0 | 0.00 | 0.00 | 0.00 | 33 | 1006.2 |
| 20260504225924 | 58 | 0 | 0.0 | 6.0 | 0.00 | 0.00 | 0.00 | 33 | 1006.2 |
| 20260504225824 | 58 | 0 | 0.0 | 6.0 | 0.00 | 0.00 | 0.00 | 33 | 1006.2 |
| 20260504225724 | 58 | 0 | 0.0 | 6.0 | 0.00 | 0.00 | 0.00 | 33 | 1006.2 |
| 20260504225624 | 58 | 0 | 0.0 | 6.0 | 0.00 | 0.00 | 0.00 | 33 | 1006.2 |
| 20260504225525 | 58 | 0 | 0.0 | 6.0 | 0.00 | 0.00 | 0.00 | 33 | 1006.2 |
| 20260504225403 | 58 | 0 | 0.0 | 6.0 | 0.00 | 0.00 | 0.00 | 33 | 1006.2 |
| 20260504225304 | 58 | 0 | 0.0 | 6.0 | 0.00 | 0.00 | 0.00 | 33 | 1006.0 |
| 20260504225203 | 58 | 0 | 0.0 | 6.0 | 0.00 | 0.00 | 0.00 | 33 | 1006.0 |
| 20260504225103 | 58 | 0 | 0.0 | 6.0 | 0.00 | 0.00 | 0.00 | 33 | 1006.0 |
| 20260504225003 | 58 | 0 | 0.0 | 6.0 | 0.00 | 0.00 | 0.00 | 33 | 1006.0 |
| 20260504224904 | 58 | 0 | 0.0 | 6.0 | 0.00 | 0.00 | 0.00 | 33 | 1006.0 |
| 20260504224803 | 58 | 0 | 0.0 | 6.0 | 0.00 | 0.00 | 0.00 | 33 | 1006.1 |
| 20260504224703 | 58 | 0 | 0.0 | 6.0 | 0.00 | 0.00 | 0.00 | 33 | 1006.1 |
| 20260504224603 | 58 | 0 | 0.0 | 6.0 | 0.00 | 0.00 | 0.00 | 33 | 1006.1 |
| 20260504224503 | 58 | 0 | 0.0 | 6.0 | 0.00 | 0.00 | 0.00 | 33 | 1006.1 |
| 20260504224403 | 58 | 0 | 0.0 | 6.0 | 0.00 | 0.00 | 0.00 | 33 | 1006.1 |
| 20260504224303 | 58 | 0 | 0.0 | 6.0 | 0.00 | 0.00 | 0.00 | 33 | 1006.1 |
| 20260504224203 | 58 | 0 | 0.0 | 6.0 | 0.00 | 0.00 | 0.00 | 33 | 1006.1 |
| 20260504224103 | 58 | 0 | 0.0 | 6.0 | 0.00 | 0.00 | 0.00 | 33 | 1006.0 |
| 20260504224003 | 58 | 0 | 0.0 | 6.0 | 0.00 | 0.00 | 0.00 | 33 | 1006.0 |
| 20260504223903 | 58 | 0 | 0.0 | 6.0 | 0.00 | 0.00 | 0.00 | 33 | 1006.0 |
| 20260504223803 | 58 | 0 | 0.0 | 6.0 | 0.00 | 0.00 | 0.00 | 33 | 1006.0 |
| 20260504223703 | 58 | 0 | 0.0 | 6.0 | 0.00 | 0.00 | 0.00 | 33 | 1006.0 |
| 20260504223603 | 58 | 0 | 0.0 | 6.0 | 0.00 | 0.00 | 0.00 | 33 | 1006.0 |
| 20260504223503 | 58 | 0 | 0.0 | 6.0 | 0.00 | 0.00 | 0.00 | 33 | 1006.1 |
| 20260504223403 | 58 | 0 | 0.0 | 6.0 | 0.00 | 0.00 | 0.00 | 33 | 1006.1 |
| 20260504223224 | 58 | 0 | 0.0 | 6.0 | 0.00 | 0.00 | 0.00 | 33 | 1006.1 |
| 20260504223124 | 58 | 0 | 0.0 | 6.0 | 0.00 | 0.00 | 0.00 | 33 | 1006.1 |
| 20260504223024 | 58 | 0 | 0.0 | 6.0 | 0.00 | 0.00 | 0.00 | 33 | 1006.1 |
| 20260504222924 | 58 | 0 | 0.0 | 6.0 | 0.00 | 0.00 | 0.00 | 33 | 1006.1 |
| 20260504222825 | 58 | 0 | 0.0 | 6.0 | 0.00 | 0.00 | 0.00 | 33 | 1006.2 |
| 20260504222704 | 58 | 0 | 0.0 | 6.0 | 0.00 | 0.00 | 0.00 | 33 | 1006.2 |
| 20260504222604 | 58 | 0 | 0.0 | 6.0 | 0.00 | 0.00 | 0.00 | 33 | 1006.2 |
| 20260504222504 | 58 | 0 | 0.0 | 6.0 | 0.00 | 0.00 | 0.00 | 33 | 1006.2 |
| 20260504222404 | 58 | 0 | 0.0 | 6.0 | 0.00 | 0.00 | 0.00 | 33 | 1006.2 |
| 20260504222305 | 58 | 0 | 0.0 | 6.0 | 0.00 | 0.00 | 0.00 | 33 | 1006.2 |
| 20260504222204 | 58 | 0 | 0.0 | 6.0 | 0.00 | 0.00 | 0.00 | 33 | 1006.2 |
| 20260504222104 | 58 | 0 | 0.0 | 6.0 | 0.00 | 0.00 | 0.00 | 33 | 1006.2 |
| 20260504222004 | 58 | 0 | 0.0 | 6.0 | 0.00 | 0.00 | 0.00 | 33 | 1006.2 |
| 20260504221904 | 58 | 0 | 0.0 | 6.0 | 0.00 | 0.00 | 0.00 | 33 | 1006.1 |
| 20260504221804 | 58 | 0 | 0.0 | 6.0 | 0.00 | 0.00 | 0.00 | 33 | 1006.1 |
| 20260504221725 | 58 | 0 | 0.0 | 6.0 | 0.00 | 0.00 | 0.00 | 33 | 1006.2 |
| 20260504221625 | 58 | 0 | 0.0 | 6.0 | 0.00 | 0.00 | 0.00 | 33 | 1006.2 |
| 20260504221525 | 58 | 0 | 0.0 | 6.0 | 0.00 | 0.00 | 0.00 | 33 | 1006.2 |
| 20260504221425 | 58 | 0 | 0.0 | 6.0 | 0.00 | 0.00 | 0.00 | 33 | 1006.2 |
| 20260504221325 | 58 | 0 | 0.0 | 6.0 | 0.00 | 0.00 | 0.00 | 33 | 1006.2 |
| 20260504221204 | 58 | 0 | 0.0 | 6.0 | 0.00 | 0.00 | 0.00 | 33 | 1006.2 |
| 20260504221104 | 58 | 0 | 0.0 | 6.0 | 0.00 | 0.00 | 0.00 | 33 | 1006.2 |
| 20260504221004 | 58 | 0 | 0.0 | 6.0 | 0.00 | 0.00 | 0.00 | 33 | 1006.2 |
| 20260504220903 | 58 | 0 | 0.0 | 6.0 | 0.00 | 0.00 | 0.00 | 33 | 1006.2 |
| 20260504220804 | 58 | 0 | 0.0 | 6.0 | 0.00 | 0.00 | 0.00 | 33 | 1006.2 |
| 20260504220724 | 58 | 0 | 0.0 | 6.0 | 0.00 | 0.00 | 0.00 | 33 | 1006.3 |
| 20260504220624 | 58 | 0 | 0.0 | 6.0 | 0.00 | 0.00 | 0.00 | 33 | 1006.3 |
| 20260504220524 | 58 | 0 | 0.0 | 6.0 | 0.00 | 0.00 | 0.00 | 33 | 1006.3 |
| 20260504220424 | 58 | 0 | 0.0 | 6.0 | 0.00 | 0.00 | 0.00 | 33 | 1006.3 |
| 20260504220303 | 58 | 0 | 0.0 | 6.0 | 0.00 | 0.00 | 0.00 | 33 | 1006.3 |
| 20260504220203 | 58 | 0 | 0.0 | 6.0 | 0.00 | 0.00 | 0.00 | 33 | 1006.3 |
| 20260504220103 | 58 | 0 | 0.0 | 6.0 | 0.00 | 0.00 | 0.00 | 33 | 1006.4 |
| 20260504220003 | 58 | 0 | 0.0 | 6.0 | 0.00 | 0.00 | 0.00 | 33 | 1006.4 |
| 20260504215903 | 58 | 0 | 0.0 | 6.0 | 0.00 | 0.00 | 0.00 | 33 | 1006.4 |
| 20260504215803 | 58 | 0 | 0.0 | 6.0 | 0.00 | 0.00 | 0.00 | 33 | 1006.4 |
| 20260504215703 | 58 | 0 | 0.0 | 6.0 | 0.00 | 0.00 | 0.00 | 33 | 1006.4 |
| 20260504215603 | 58 | 0 | 0.0 | 6.0 | 0.00 | 0.00 | 0.00 | 33 | 1006.3 |
| 20260504215503 | 58 | 0 | 0.0 | 6.0 | 0.00 | 0.00 | 0.00 | 33 | 1006.3 |
| 20260504215403 | 58 | 0 | 0.0 | 6.0 | 0.00 | 0.00 | 0.00 | 33 | 1006.3 |
| 20260504215304 | 58 | 0 | 0.0 | 6.0 | 0.00 | 0.00 | 0.00 | 33 | 1006.4 |
| 20260504215224 | 58 | 0 | 0.0 | 6.0 | 0.00 | 0.00 | 0.00 | 33 | 1006.4 |
| 20260504215124 | 58 | 0 | 0.0 | 6.0 | 0.00 | 0.00 | 0.00 | 33 | 1006.4 |
| 20260504215024 | 58 | 0 | 0.0 | 6.0 | 0.00 | 0.00 | 0.00 | 33 | 1006.4 |
| 20260504214924 | 58 | 0 | 0.0 | 6.0 | 0.00 | 0.00 | 0.00 | 33 | 1006.4 |
| 20260504214824 | 58 | 0 | 0.0 | 6.0 | 0.00 | 0.00 | 0.00 | 33 | 1006.4 |
| 20260504214725 | 58 | 0 | 0.0 | 6.0 | 0.00 | 0.00 | 0.00 | 33 | 1006.4 |
| 20260504214603 | 58 | 0 | 0.0 | 6.0 | 0.00 | 0.00 | 0.00 | 33 | 1006.3 |
| 20260504214503 | 58 | 0 | 0.0 | 6.0 | 0.00 | 0.00 | 0.00 | 33 | 1006.4 |
| 20260504214403 | 58 | 0 | 0.0 | 6.0 | 0.00 | 0.00 | 0.00 | 33 | 1006.4 |
| 20260504214303 | 58 | 0 | 0.0 | 6.0 | 0.00 | 0.00 | 0.00 | 33 | 1006.4 |
| 20260504214204 | 58 | 0 | 0.0 | 6.0 | 0.00 | 0.00 | 0.00 | 33 | 1006.4 |
| 20260504214104 | 58 | 0 | 0.0 | 6.0 | 0.00 | 0.00 | 0.00 | 33 | 1006.5 |
| 20260504214004 | 58 | 0 | 0.0 | 6.0 | 0.00 | 0.00 | 0.00 | 33 | 1006.5 |
| 20260504213904 | 58 | 0 | 0.0 | 6.0 | 0.00 | 0.00 | 0.00 | 33 | 1006.5 |
| 20260504213804 | 58 | 0 | 0.0 | 6.0 | 0.00 | 0.00 | 0.00 | 33 | 1006.5 |
| 20260504213704 | 58 | 0 | 0.0 | 6.0 | 0.00 | 0.00 | 0.00 | 33 | 1006.5 |
| 20260504213604 | 58 | 0 | 0.0 | 6.0 | 0.00 | 0.00 | 0.00 | 33 | 1006.5 |
| 20260504213504 | 58 | 0 | 0.0 | 6.0 | 0.00 | 0.00 | 0.00 | 33 | 1006.5 |
| 20260504213404 | 58 | 0 | 0.0 | 6.0 | 0.00 | 0.00 | 0.00 | 33 | 1006.5 |
| 20260504213304 | 58 | 0 | 0.0 | 6.0 | 0.00 | 0.00 | 0.00 | 33 | 1006.5 |
| 20260504213204 | 58 | 0 | 0.0 | 6.0 | 0.00 | 0.00 | 0.00 | 33 | 1006.5 |
| 20260504213104 | 58 | 0 | 0.0 | 6.0 | 0.00 | 0.00 | 0.00 | 33 | 1006.5 |
| 20260504213004 | 58 | 0 | 0.0 | 6.0 | 0.00 | 0.00 | 0.00 | 33 | 1006.5 |
| 20260504212904 | 58 | 0 | 0.0 | 6.0 | 0.00 | 0.00 | 0.00 | 33 | 1006.5 |
| 20260504212804 | 58 | 0 | 0.0 | 6.0 | 0.00 | 0.00 | 0.00 | 33 | 1006.5 |
| 20260504212704 | 58 | 0 | 0.0 | 6.0 | 0.00 | 0.00 | 0.00 | 33 | 1006.5 |
| 20260504212604 | 58 | 0 | 0.0 | 6.0 | 0.00 | 0.00 | 0.00 | 33 | 1006.5 |
| 20260504212504 | 58 | 0 | 0.0 | 6.0 | 0.00 | 0.00 | 0.00 | 33 | 1006.5 |
| 20260504212403 | 58 | 0 | 0.0 | 6.0 | 0.00 | 0.00 | 0.00 | 33 | 1006.5 |
| 20260504212304 | 58 | 0 | 0.0 | 6.0 | 0.00 | 0.00 | 0.00 | 33 | 1006.5 |
| 20260504212203 | 58 | 0 | 0.0 | 6.0 | 0.00 | 0.00 | 0.00 | 33 | 1006.6 |
| 20260504212103 | 58 | 0 | 0.0 | 6.0 | 0.00 | 0.00 | 0.00 | 33 | 1006.6 |
| 20260504212003 | 58 | 0 | 0.0 | 6.0 | 0.00 | 0.00 | 0.00 | 33 | 1006.6 |
| 20260504211903 | 58 | 0 | 0.0 | 6.0 | 0.00 | 0.00 | 0.00 | 33 | 1006.6 |
| 20260504211804 | 58 | 0 | 0.0 | 6.0 | 0.00 | 0.00 | 0.00 | 33 | 1006.6 |
| 20260504211703 | 58 | 0 | 0.0 | 6.0 | 0.00 | 0.00 | 0.00 | 33 | 1006.6 |
| 20260504211604 | 58 | 0 | 0.0 | 6.0 | 0.00 | 0.00 | 0.00 | 33 | 1006.6 |
| 20260504211503 | 58 | 0 | 0.0 | 6.0 | 0.00 | 0.00 | 0.00 | 33 | 1006.6 |
| 20260504211403 | 58 | 0 | 0.0 | 6.0 | 0.00 | 0.00 | 0.00 | 33 | 1006.6 |
| 20260504211303 | 58 | 0 | 0.0 | 6.0 | 0.00 | 0.00 | 0.00 | 33 | 1006.6 |
| 20260504211203 | 58 | 0 | 0.0 | 6.0 | 0.00 | 0.00 | 0.00 | 33 | 1006.6 |
| 20260504211103 | 58 | 0 | 0.0 | 6.0 | 0.00 | 0.00 | 0.00 | 33 | 1006.6 |
| 20260504211003 | 58 | 0 | 0.0 | 6.0 | 0.00 | 0.00 | 0.00 | 33 | 1006.6 |
| 20260504210903 | 58 | 0 | 0.0 | 6.0 | 0.00 | 0.00 | 0.00 | 33 | 1006.7 |
| 20260504210803 | 58 | 0 | 0.0 | 6.0 | 0.00 | 0.00 | 0.00 | 33 | 1006.7 |
| 20260504210703 | 58 | 0 | 0.0 | 6.0 | 0.00 | 0.00 | 0.00 | 33 | 1006.6 |
| 20260504210603 | 58 | 0 | 0.0 | 6.0 | 0.00 | 0.00 | 0.00 | 33 | 1006.6 |
| 20260504210503 | 58 | 0 | 0.0 | 6.0 | 0.00 | 0.00 | 0.00 | 33 | 1006.6 |
| 20260504210403 | 58 | 0 | 0.0 | 6.0 | 0.00 | 0.00 | 0.00 | 33 | 1006.6 |
| 20260504210303 | 58 | 0 | 0.0 | 6.0 | 0.00 | 0.00 | 0.00 | 33 | 1006.6 |
| 20260504210203 | 58 | 0 | 0.0 | 6.0 | 0.00 | 0.00 | 0.00 | 33 | 1006.7 |
| 20260504210104 | 58 | 0 | 0.0 | 6.0 | 0.00 | 0.00 | 0.00 | 33 | 1006.5 |
| 20260504210004 | 58 | 0 | 0.0 | 6.0 | 0.00 | 0.00 | 0.00 | 33 | 1006.5 |
| 20260504205904 | 58 | 0 | 0.0 | 6.0 | 0.00 | 0.00 | 0.00 | 33 | 1006.6 |
| 20260504205804 | 58 | 0 | 0.0 | 6.0 | 0.00 | 0.00 | 0.00 | 33 | 1006.6 |
| 20260504205704 | 58 | 0 | 0.0 | 6.0 | 0.00 | 0.00 | 0.00 | 33 | 1006.6 |
| 20260504205604 | 58 | 0 | 0.0 | 6.0 | 0.00 | 0.00 | 0.00 | 33 | 1006.6 |
| 20260504205503 | 58 | 0 | 0.0 | 6.0 | 0.00 | 0.00 | 0.00 | 33 | 1006.6 |
| 20260504205404 | 58 | 0 | 0.0 | 6.0 | 0.00 | 0.00 | 0.00 | 33 | 1006.6 |
| 20260504205304 | 58 | 0 | 0.0 | 6.0 | 0.00 | 0.00 | 0.00 | 33 | 1006.6 |
| 20260504205204 | 58 | 0 | 0.0 | 6.0 | 0.00 | 0.00 | 0.00 | 33 | 1006.6 |
| 20260504205104 | 58 | 0 | 0.0 | 6.0 | 0.00 | 0.00 | 0.00 | 33 | 1006.6 |
| 20260504205004 | 58 | 0 | 0.0 | 6.0 | 0.00 | 0.00 | 0.00 | 33 | 1006.6 |
| 20260504204903 | 58 | 0 | 0.0 | 6.0 | 0.00 | 0.00 | 0.00 | 33 | 1006.6 |
| 20260504204803 | 58 | 0 | 0.0 | 6.0 | 0.00 | 0.00 | 0.00 | 33 | 1006.6 |
| 20260504204703 | 58 | 0 | 0.0 | 6.0 | 0.00 | 0.00 | 0.00 | 33 | 1006.6 |
| 20260504204603 | 58 | 0 | 0.0 | 6.0 | 0.00 | 0.00 | 0.00 | 33 | 1006.7 |
| 20260504204504 | 58 | 0 | 0.0 | 6.0 | 0.00 | 0.00 | 0.00 | 33 | 1006.7 |
| 20260504204404 | 58 | 0 | 0.0 | 6.0 | 0.00 | 0.00 | 0.00 | 33 | 1006.6 |
| 20260504204304 | 58 | 0 | 0.0 | 6.0 | 0.00 | 0.00 | 0.00 | 33 | 1006.6 |
| 20260504204204 | 58 | 0 | 0.0 | 6.0 | 0.00 | 0.00 | 0.00 | 33 | 1006.6 |
| 20260504204103 | 58 | 0 | 0.0 | 6.0 | 0.00 | 0.00 | 0.00 | 33 | 1006.6 |
| 20260504204025 | 58 | 0 | 0.0 | 6.0 | 0.00 | 0.00 | 0.00 | 33 | 1006.6 |
| 20260504203904 | 58 | 0 | 0.0 | 6.0 | 0.00 | 0.00 | 0.00 | 33 | 1006.6 |
| 20260504203803 | 58 | 0 | 0.0 | 6.0 | 0.00 | 0.00 | 0.00 | 33 | 1006.6 |
| 20260504203703 | 58 | 0 | 0.0 | 6.0 | 0.00 | 0.00 | 0.00 | 33 | 1006.6 |
| 20260504203604 | 58 | 0 | 0.0 | 6.0 | 0.00 | 0.00 | 0.00 | 33 | 1006.6 |
| 20260504203504 | 58 | 0 | 0.0 | 6.0 | 0.00 | 0.00 | 0.00 | 33 | 1006.6 |
| 20260504203404 | 58 | 0 | 0.0 | 6.0 | 0.00 | 0.00 | 0.00 | 33 | 1006.6 |
| 20260504203203 | 58 | 0 | 0.0 | 6.0 | 0.00 | 0.00 | 0.00 | 33 | 1006.6 |
| 20260504203103 | 58 | 0 | 0.0 | 6.0 | 0.00 | 0.00 | 0.00 | 33 | 1006.6 |
| 20260504203003 | 58 | 0 | 0.0 | 6.0 | 0.00 | 0.00 | 0.00 | 33 | 1006.6 |
| 20260504202903 | 58 | 0 | 0.0 | 6.0 | 0.00 | 0.00 | 0.00 | 33 | 1006.6 |
| 20260504202803 | 58 | 0 | 0.0 | 6.0 | 0.00 | 0.00 | 0.00 | 33 | 1006.6 |
| 20260504202724 | 58 | 0 | 0.0 | 6.0 | 0.00 | 0.00 | 0.00 | 33 | 1006.6 |
| 20260504202624 | 58 | 0 | 0.0 | 6.0 | 0.00 | 0.00 | 0.00 | 33 | 1006.6 |
| 20260504202524 | 58 | 0 | 0.0 | 6.0 | 0.00 | 0.00 | 0.00 | 33 | 1006.6 |
| 20260504202424 | 58 | 0 | 0.0 | 6.0 | 0.00 | 0.00 | 0.00 | 33 | 1006.6 |
| 20260504202304 | 58 | 0 | 0.0 | 6.0 | 0.00 | 0.00 | 0.00 | 33 | 1006.6 |
| 20260504202203 | 58 | 0 | 0.0 | 6.0 | 0.00 | 0.00 | 0.00 | 33 | 1006.6 |
| 20260504202103 | 58 | 0 | 0.0 | 6.0 | 0.00 | 0.00 | 0.00 | 33 | 1006.6 |
| 20260504202003 | 58 | 0 | 0.0 | 6.0 | 0.00 | 0.00 | 0.00 | 33 | 1006.6 |
| 20260504201903 | 58 | 0 | 0.0 | 6.0 | 0.00 | 0.00 | 0.00 | 33 | 1006.6 |
| 20260504201803 | 58 | 0 | 0.0 | 6.0 | 0.00 | 0.00 | 0.00 | 33 | 1006.6 |
| 20260504201724 | 58 | 0 | 0.0 | 6.0 | 0.00 | 0.00 | 0.00 | 33 | 1006.7 |
| 20260504201624 | 58 | 0 | 0.0 | 6.0 | 0.00 | 0.00 | 0.00 | 33 | 1006.7 |
| 20260504201524 | 58 | 0 | 0.0 | 6.0 | 0.00 | 0.00 | 0.00 | 33 | 1006.7 |
| 20260504201424 | 58 | 0 | 0.0 | 6.0 | 0.00 | 0.00 | 0.00 | 33 | 1006.7 |
| 20260504201324 | 58 | 0 | 0.0 | 6.0 | 0.00 | 0.00 | 0.00 | 33 | 1006.8 |
| 20260504201224 | 58 | 0 | 0.0 | 6.0 | 0.00 | 0.00 | 0.00 | 33 | 1006.7 |
| 20260504201124 | 58 | 0 | 0.0 | 6.0 | 0.00 | 0.00 | 0.00 | 33 | 1006.7 |
| 20260504201024 | 58 | 0 | 0.0 | 6.0 | 0.00 | 0.00 | 0.00 | 33 | 1006.8 |
| 20260504200924 | 58 | 0 | 0.0 | 6.0 | 0.00 | 0.00 | 0.00 | 33 | 1006.8 |
| 20260504200804 | 58 | 0 | 0.0 | 6.0 | 0.00 | 0.00 | 0.00 | 33 | 1006.8 |
| 20260504200704 | 58 | 0 | 0.0 | 6.0 | 0.00 | 0.00 | 0.00 | 33 | 1006.8 |
| 20260504200604 | 58 | 0 | 0.0 | 6.0 | 0.00 | 0.00 | 0.00 | 33 | 1006.8 |
| 20260504200504 | 58 | 0 | 0.0 | 6.0 | 0.00 | 0.00 | 0.00 | 33 | 1006.8 |
| 20260504200404 | 58 | 0 | 0.0 | 6.0 | 0.00 | 0.00 | 0.00 | 33 | 1006.8 |
| 20260504200304 | 58 | 0 | 0.0 | 6.0 | 0.00 | 0.00 | 0.00 | 33 | 1006.8 |
| 20260504200204 | 58 | 0 | 0.0 | 6.0 | 0.00 | 0.00 | 0.00 | 33 | 1006.9 |
| 20260504200103 | 58 | 0 | 0.0 | 6.0 | 0.00 | 0.00 | 0.00 | 33 | 1006.8 |
| 20260504200004 | 58 | 0 | 0.0 | 6.0 | 0.00 | 0.00 | 0.00 | 33 | 1006.8 |
| 20260504195903 | 58 | 0 | 0.0 | 6.0 | 0.00 | 0.00 | 0.00 | 33 | 1006.8 |
| 20260504195804 | 58 | 0 | 0.0 | 6.0 | 0.00 | 0.00 | 0.00 | 33 | 1006.8 |
| 20260504195704 | 58 | 0 | 0.0 | 6.0 | 0.00 | 0.00 | 0.00 | 33 | 1006.8 |
| 20260504195604 | 58 | 0 | 0.0 | 6.0 | 0.00 | 0.00 | 0.00 | 33 | 1006.9 |
| 20260504195504 | 58 | 0 | 0.0 | 6.0 | 0.00 | 0.00 | 0.00 | 33 | 1006.9 |
| 20260504195404 | 58 | 0 | 0.0 | 6.0 | 0.00 | 0.00 | 0.00 | 33 | 1007.0 |
| 20260504195304 | 58 | 0 | 0.0 | 6.0 | 0.00 | 0.00 | 0.00 | 33 | 1006.9 |
| 20260504195204 | 58 | 0 | 0.0 | 6.0 | 0.00 | 0.00 | 0.00 | 33 | 1006.9 |
| 20260504195104 | 58 | 0 | 0.0 | 6.0 | 0.00 | 0.00 | 0.00 | 33 | 1007.0 |
| 20260504195004 | 58 | 0 | 0.0 | 6.0 | 0.00 | 0.00 | 0.00 | 33 | 1007.0 |
| 20260504194903 | 58 | 0 | 0.0 | 6.0 | 0.00 | 0.00 | 0.00 | 33 | 1007.0 |
| 20260504194804 | 58 | 0 | 0.0 | 6.0 | 0.00 | 0.00 | 0.00 | 33 | 1006.9 |
| 20260504194703 | 58 | 0 | 0.0 | 6.0 | 0.00 | 0.00 | 0.00 | 33 | 1006.9 |
| 20260504194603 | 58 | 0 | 0.0 | 6.0 | 0.00 | 0.00 | 0.00 | 33 | 1007.0 |
| 20260504194503 | 58 | 0 | 0.0 | 6.0 | 0.00 | 0.00 | 0.00 | 33 | 1007.1 |
| 20260504194403 | 58 | 0 | 0.0 | 6.0 | 0.00 | 0.00 | 0.00 | 33 | 1007.1 |
| 20260504194304 | 58 | 0 | 0.0 | 6.0 | 0.00 | 0.00 | 0.00 | 33 | 1007.0 |
| 20260504194203 | 58 | 0 | 0.0 | 6.0 | 0.00 | 0.00 | 0.00 | 33 | 1007.0 |
| 20260504194103 | 58 | 0 | 0.0 | 6.0 | 0.00 | 0.00 | 0.00 | 33 | 1007.0 |
| 20260504194003 | 58 | 0 | 0.0 | 6.0 | 0.00 | 0.00 | 0.00 | 33 | 1007.0 |
| 20260504193903 | 58 | 0 | 0.0 | 6.0 | 0.00 | 0.00 | 0.00 | 33 | 1007.0 |
| 20260504193803 | 58 | 0 | 0.0 | 6.0 | 0.00 | 0.00 | 0.00 | 33 | 1007.0 |
| 20260504193703 | 58 | 0 | 0.0 | 6.0 | 0.00 | 0.00 | 0.00 | 33 | 1007.1 |
| 20260504193603 | 58 | 0 | 0.0 | 6.0 | 0.00 | 0.00 | 0.00 | 33 | 1007.1 |
| 20260504193503 | 58 | 0 | 0.0 | 6.0 | 0.00 | 0.00 | 0.00 | 33 | 1007.0 |
| 20260504193404 | 58 | 0 | 0.0 | 6.0 | 0.00 | 0.00 | 0.00 | 33 | 1007.0 |
| 20260504193304 | 58 | 0 | 0.0 | 6.0 | 0.00 | 0.00 | 0.00 | 33 | 1007.1 |
| 20260504193203 | 58 | 0 | 0.0 | 6.0 | 0.00 | 0.00 | 0.00 | 33 | 1007.0 |
| 20260504193103 | 58 | 0 | 0.0 | 6.0 | 0.00 | 0.00 | 0.00 | 33 | 1007.0 |
| 20260504193003 | 58 | 0 | 0.0 | 6.0 | 0.00 | 0.00 | 0.00 | 33 | 1007.0 |
| 20260504192903 | 58 | 0 | 0.0 | 6.0 | 0.00 | 0.00 | 0.00 | 33 | 1007.0 |
| 20260504192803 | 58 | 0 | 0.0 | 6.0 | 0.00 | 0.00 | 0.00 | 33 | 1007.0 |
| 20260504192703 | 58 | 0 | 0.0 | 6.0 | 0.00 | 0.00 | 0.00 | 33 | 1007.1 |
| 20260504192603 | 58 | 0 | 0.0 | 6.0 | 0.00 | 0.00 | 0.00 | 33 | 1007.1 |
| 20260504192503 | 58 | 0 | 0.0 | 6.0 | 0.00 | 0.00 | 0.00 | 33 | 1007.1 |
| 20260504192403 | 58 | 0 | 0.0 | 6.0 | 0.00 | 0.00 | 0.00 | 33 | 1007.1 |
| 20260504192304 | 58 | 0 | 0.0 | 6.0 | 0.00 | 0.00 | 0.00 | 33 | 1007.2 |
| 20260504192203 | 58 | 0 | 0.0 | 6.0 | 0.00 | 0.00 | 0.00 | 33 | 1007.1 |
| 20260504192103 | 58 | 0 | 0.0 | 6.0 | 0.00 | 0.00 | 0.00 | 33 | 1007.1 |
| 20260504192003 | 58 | 0 | 0.0 | 6.0 | 0.00 | 0.00 | 0.00 | 33 | 1007.2 |
| 20260504191903 | 58 | 0 | 0.0 | 6.0 | 0.00 | 0.00 | 0.00 | 33 | 1007.2 |
| 20260504191803 | 58 | 0 | 0.0 | 6.0 | 0.00 | 0.00 | 0.00 | 33 | 1007.2 |
| 20260504191703 | 58 | 0 | 0.0 | 6.0 | 0.00 | 0.00 | 0.00 | 33 | 1007.3 |
| 20260504191603 | 58 | 0 | 0.0 | 6.0 | 0.00 | 0.00 | 0.00 | 33 | 1007.3 |
| 20260504191503 | 58 | 0 | 0.0 | 6.0 | 0.00 | 0.00 | 0.00 | 33 | 1007.3 |
| 20260504191403 | 58 | 0 | 0.0 | 6.0 | 0.00 | 0.00 | 0.00 | 33 | 1007.3 |
| 20260504191303 | 58 | 0 | 0.0 | 6.0 | 0.00 | 0.00 | 0.00 | 33 | 1007.3 |
| 20260504191224 | 58 | 0 | 0.0 | 6.0 | 0.00 | 0.00 | 0.00 | 33 | 1007.3 |
| 20260504191124 | 58 | 0 | 0.0 | 6.0 | 0.00 | 0.00 | 0.00 | 33 | 1007.3 |
| 20260504191024 | 58 | 0 | 0.0 | 6.0 | 0.00 | 0.00 | 0.00 | 33 | 1007.3 |
| 20260504190924 | 58 | 0 | 0.0 | 6.0 | 0.00 | 0.00 | 0.00 | 33 | 1007.3 |
| 20260504190824 | 58 | 0 | 0.0 | 6.0 | 0.00 | 0.00 | 0.00 | 33 | 1007.3 |
| 20260504190703 | 58 | 0 | 0.0 | 6.0 | 0.00 | 0.00 | 0.00 | 33 | 1007.3 |
| 20260504190603 | 58 | 0 | 0.0 | 6.0 | 0.00 | 0.00 | 0.00 | 33 | 1007.3 |
| 20260504190504 | 58 | 0 | 0.0 | 6.0 | 0.00 | 0.00 | 0.00 | 33 | 1007.4 |
| 20260504190404 | 58 | 0 | 0.0 | 6.0 | 0.00 | 0.00 | 0.00 | 33 | 1007.4 |
| 20260504190304 | 58 | 0 | 0.0 | 6.0 | 0.00 | 0.00 | 0.00 | 33 | 1007.4 |
| 20260504190203 | 58 | 0 | 0.0 | 6.0 | 0.00 | 0.00 | 0.00 | 33 | 1007.4 |
| 20260504190104 | 58 | 0 | 0.0 | 6.0 | 0.00 | 0.00 | 0.00 | 33 | 1007.4 |
| 20260504190004 | 58 | 0 | 0.0 | 6.0 | 0.00 | 0.00 | 0.00 | 33 | 1007.4 |
| 20260504185904 | 58 | 0 | 0.0 | 6.0 | 0.00 | 0.00 | 0.00 | 33 | 1007.5 |
| 20260504185804 | 58 | 0 | 0.0 | 6.0 | 0.00 | 0.00 | 0.00 | 33 | 1007.5 |
| 20260504185704 | 58 | 0 | 0.0 | 6.0 | 0.00 | 0.00 | 0.00 | 33 | 1007.5 |
| 20260504185624 | 58 | 0 | 0.0 | 6.0 | 0.00 | 0.00 | 0.00 | 33 | 1007.5 |
| 20260504185524 | 58 | 0 | 0.0 | 6.0 | 0.00 | 0.00 | 0.00 | 33 | 1007.5 |
| 20260504185424 | 58 | 0 | 0.0 | 6.0 | 0.00 | 0.00 | 0.00 | 33 | 1007.5 |
| 20260504185324 | 58 | 0 | 0.0 | 6.0 | 0.00 | 0.00 | 0.00 | 33 | 1007.7 |
| 20260504185224 | 58 | 0 | 0.0 | 6.0 | 0.00 | 0.00 | 0.00 | 33 | 1007.7 |
| 20260504185103 | 58 | 0 | 0.0 | 6.0 | 0.00 | 0.00 | 0.00 | 33 | 1007.5 |
| 20260504185003 | 58 | 0 | 0.0 | 6.0 | 0.00 | 0.00 | 0.00 | 33 | 1007.6 |
| 20260504184903 | 58 | 0 | 0.0 | 6.0 | 0.00 | 0.00 | 0.00 | 33 | 1007.6 |
| 20260504184803 | 58 | 0 | 0.0 | 6.0 | 0.00 | 0.00 | 0.00 | 33 | 1007.5 |
| 20260504184703 | 58 | 0 | 0.0 | 6.0 | 0.00 | 0.00 | 0.00 | 33 | 1007.5 |
| 20260504184603 | 58 | 0 | 0.0 | 6.0 | 0.00 | 0.00 | 0.00 | 33 | 1007.6 |
| 20260504184503 | 58 | 0 | 0.0 | 6.0 | 0.00 | 0.00 | 0.00 | 33 | 1007.7 |
| 20260504184403 | 58 | 0 | 0.0 | 6.0 | 0.00 | 0.00 | 0.00 | 33 | 1007.7 |
| 20260504184303 | 58 | 0 | 0.0 | 6.0 | 0.00 | 0.00 | 0.00 | 33 | 1007.8 |
| 20260504184203 | 58 | 0 | 0.0 | 6.0 | 0.00 | 0.00 | 0.00 | 33 | 1007.7 |
| 20260504184103 | 58 | 0 | 0.0 | 6.0 | 0.00 | 0.00 | 0.00 | 33 | 1007.7 |
| 20260504184003 | 58 | 0 | 0.0 | 6.0 | 0.00 | 0.00 | 0.00 | 33 | 1007.8 |
| 20260504183903 | 58 | 0 | 0.0 | 6.0 | 0.00 | 0.00 | 0.00 | 33 | 1007.8 |
| 20260504183803 | 58 | 0 | 0.0 | 6.0 | 0.00 | 0.00 | 0.00 | 33 | 1007.8 |
| 20260504183703 | 58 | 0 | 0.0 | 6.0 | 0.00 | 0.00 | 0.00 | 33 | 1007.7 |
| 20260504183603 | 58 | 0 | 0.0 | 6.0 | 0.00 | 0.00 | 0.00 | 33 | 1007.7 |
| 20260504183503 | 58 | 0 | 0.0 | 6.0 | 0.00 | 0.00 | 0.00 | 33 | 1007.8 |
| 20260504183403 | 58 | 0 | 0.0 | 6.0 | 0.00 | 0.00 | 0.00 | 33 | 1007.8 |
| 20260504183303 | 58 | 0 | 0.0 | 6.0 | 0.00 | 0.00 | 0.00 | 33 | 1007.7 |
| 20260504183203 | 58 | 0 | 0.0 | 6.0 | 0.00 | 0.00 | 0.00 | 33 | 1007.8 |
| 20260504183103 | 58 | 0 | 0.0 | 6.0 | 0.00 | 0.00 | 0.00 | 33 | 1007.8 |
| 20260504183003 | 58 | 0 | 0.0 | 6.0 | 0.00 | 0.00 | 0.00 | 33 | 1007.9 |
| 20260504182903 | 58 | 0 | 0.0 | 6.0 | 0.00 | 0.00 | 0.00 | 33 | 1007.9 |
| 20260504182803 | 58 | 0 | 0.0 | 6.0 | 0.00 | 0.00 | 0.00 | 33 | 1007.8 |
| 20260504182703 | 58 | 0 | 0.0 | 6.0 | 0.00 | 0.00 | 0.00 | 33 | 1007.9 |
| 20260504182604 | 58 | 0 | 0.0 | 6.0 | 0.00 | 0.00 | 0.00 | 33 | 1007.9 |
| 20260504182503 | 58 | 0 | 0.0 | 6.0 | 0.00 | 0.00 | 0.00 | 33 | 1007.9 |
| 20260504182403 | 58 | 0 | 0.0 | 6.0 | 0.00 | 0.00 | 0.00 | 33 | 1007.9 |
| 20260504182304 | 58 | 0 | 0.0 | 6.0 | 0.00 | 0.00 | 0.00 | 33 | 1007.9 |
| 20260504182203 | 58 | 0 | 0.0 | 6.0 | 0.00 | 0.00 | 0.00 | 33 | 1007.9 |
| 20260504182103 | 58 | 0 | 0.0 | 6.0 | 0.00 | 0.00 | 0.00 | 33 | 1007.9 |
| 20260504182003 | 58 | 0 | 0.0 | 6.0 | 0.00 | 0.00 | 0.00 | 33 | 1008.0 |
| 20260504181903 | 58 | 0 | 0.0 | 6.0 | 0.00 | 0.00 | 0.00 | 33 | 1007.9 |
| 20260504181803 | 58 | 0 | 0.0 | 6.0 | 0.00 | 0.00 | 0.00 | 33 | 1007.9 |
| 20260504181703 | 58 | 0 | 0.0 | 6.0 | 0.00 | 0.00 | 0.00 | 33 | 1007.8 |
| 20260504181603 | 58 | 0 | 0.0 | 6.0 | 0.00 | 0.00 | 0.00 | 33 | 1007.8 |
| 20260504181503 | 58 | 0 | 0.0 | 6.0 | 0.00 | 0.00 | 0.00 | 33 | 1008.0 |
| 20260504181403 | 58 | 0 | 0.0 | 6.0 | 0.00 | 0.00 | 0.00 | 33 | 1007.9 |
| 20260504181303 | 58 | 0 | 0.0 | 6.0 | 0.00 | 0.00 | 0.00 | 33 | 1007.9 |
| 20260504181203 | 58 | 0 | 0.0 | 6.0 | 0.00 | 0.00 | 0.00 | 33 | 1008.0 |
| 20260504181103 | 58 | 0 | 0.0 | 6.0 | 0.00 | 0.00 | 0.00 | 33 | 1008.0 |
| 20260504181003 | 58 | 0 | 0.0 | 6.0 | 0.00 | 0.00 | 0.00 | 33 | 1008.0 |
| 20260504180903 | 58 | 0 | 0.0 | 6.0 | 0.00 | 0.00 | 0.00 | 33 | 1008.0 |
| 20260504180803 | 58 | 0 | 0.0 | 6.0 | 0.00 | 0.00 | 0.00 | 33 | 1008.0 |
| 20260504180703 | 58 | 0 | 0.0 | 6.0 | 0.00 | 0.00 | 0.00 | 33 | 1008.0 |
| 20260504180603 | 58 | 0 | 0.0 | 6.0 | 0.00 | 0.00 | 0.00 | 33 | 1008.1 |
| 20260504180503 | 58 | 0 | 0.0 | 6.0 | 0.00 | 0.00 | 0.00 | 33 | 1008.1 |
| 20260504180403 | 58 | 0 | 0.0 | 6.0 | 0.00 | 0.00 | 0.00 | 33 | 1008.1 |
| 20260504180303 | 58 | 0 | 0.0 | 6.0 | 0.00 | 0.00 | 0.00 | 33 | 1008.1 |
| 20260504180203 | 58 | 0 | 0.0 | 6.0 | 0.00 | 0.00 | 0.00 | 33 | 1008.1 |
| 20260504180103 | 58 | 0 | 0.0 | 6.0 | 0.00 | 0.00 | 0.00 | 33 | 1008.1 |
| 20260504180004 | 58 | 0 | 0.0 | 6.0 | 0.00 | 0.00 | 0.00 | 33 | 1008.1 |
| 20260504175904 | 58 | 0 | 0.0 | 6.0 | 0.00 | 0.00 | 0.00 | 33 | 1008.1 |
| 20260504175804 | 58 | 0 | 0.0 | 6.0 | 0.00 | 0.00 | 0.00 | 33 | 1008.1 |
| 20260504175703 | 58 | 0 | 0.0 | 6.0 | 0.00 | 0.00 | 0.00 | 33 | 1008.1 |
| 20260504175603 | 58 | 0 | 0.0 | 6.0 | 0.00 | 0.00 | 0.00 | 33 | 1008.1 |
| 20260504175504 | 58 | 0 | 0.0 | 6.0 | 0.00 | 0.00 | 0.00 | 33 | 1008.1 |
| 20260504175403 | 58 | 0 | 0.0 | 6.0 | 0.00 | 0.00 | 0.00 | 33 | 1008.2 |
| 20260504175304 | 58 | 0 | 0.0 | 6.0 | 0.00 | 0.00 | 0.00 | 33 | 1008.3 |
| 20260504175204 | 58 | 0 | 0.0 | 6.0 | 0.00 | 0.00 | 0.00 | 33 | 1008.3 |
| 20260504175103 | 58 | 0 | 0.0 | 6.0 | 0.00 | 0.00 | 0.00 | 33 | 1008.4 |
| 20260504175004 | 58 | 0 | 0.0 | 6.0 | 0.00 | 0.00 | 0.00 | 33 | 1008.3 |
| 20260504174925 | 58 | 0 | 0.0 | 6.0 | 0.00 | 0.00 | 0.00 | 33 | 1008.3 |
| 20260504174825 | 58 | 0 | 0.0 | 6.0 | 0.00 | 0.00 | 0.00 | 33 | 1008.3 |
| 20260504174724 | 58 | 0 | 0.0 | 6.0 | 0.00 | 0.00 | 0.00 | 33 | 1008.3 |
| 20260504174624 | 58 | 0 | 0.0 | 6.0 | 0.00 | 0.00 | 0.00 | 33 | 1008.3 |
| 20260504174525 | 58 | 0 | 0.0 | 6.0 | 0.00 | 0.00 | 0.00 | 33 | 1008.3 |
| 20260504174403 | 58 | 0 | 0.0 | 6.0 | 0.00 | 0.00 | 0.00 | 33 | 1008.4 |
| 20260504174303 | 58 | 0 | 0.0 | 6.0 | 0.00 | 0.00 | 0.00 | 33 | 1008.3 |
| 20260504174203 | 58 | 0 | 0.0 | 6.0 | 0.00 | 0.00 | 0.00 | 33 | 1008.3 |
| 20260504174103 | 58 | 0 | 0.0 | 6.0 | 0.00 | 0.00 | 0.00 | 33 | 1008.3 |
| 20260504174003 | 58 | 0 | 0.0 | 6.0 | 0.00 | 0.00 | 0.00 | 33 | 1008.4 |
| 20260504173903 | 58 | 0 | 0.0 | 6.0 | 0.00 | 0.00 | 0.00 | 33 | 1008.4 |
| 20260504173803 | 58 | 0 | 0.0 | 6.0 | 0.00 | 0.00 | 0.00 | 33 | 1008.4 |
| 20260504173703 | 58 | 0 | 0.0 | 6.0 | 0.00 | 0.00 | 0.00 | 33 | 1008.5 |
| 20260504173603 | 58 | 0 | 0.0 | 6.0 | 0.00 | 0.00 | 0.00 | 33 | 1008.5 |
| 20260504173503 | 58 | 0 | 0.0 | 6.0 | 0.00 | 0.00 | 0.00 | 33 | 1008.5 |
| 20260504173403 | 58 | 0 | 0.0 | 6.0 | 0.00 | 0.00 | 0.00 | 33 | 1008.5 |
| 20260504173303 | 58 | 0 | 0.0 | 6.0 | 0.00 | 0.00 | 0.00 | 33 | 1008.6 |
| 20260504173204 | 58 | 0 | 0.0 | 6.0 | 0.00 | 0.00 | 0.00 | 33 | 1008.5 |
| 20260504173103 | 58 | 0 | 0.0 | 6.0 | 0.00 | 0.00 | 0.00 | 33 | 1008.5 |
| 20260504173003 | 58 | 0 | 0.0 | 6.0 | 0.00 | 0.00 | 0.00 | 33 | 1008.5 |
| 20260504172924 | 58 | 0 | 0.0 | 6.0 | 0.00 | 0.00 | 0.00 | 33 | 1008.5 |
| 20260504172824 | 58 | 0 | 0.0 | 6.0 | 0.00 | 0.00 | 0.00 | 33 | 1008.5 |
| 20260504172724 | 58 | 0 | 0.0 | 6.0 | 0.00 | 0.00 | 0.00 | 33 | 1008.5 |
| 20260504172624 | 58 | 0 | 0.0 | 6.0 | 0.00 | 0.00 | 0.00 | 33 | 1008.4 |
| 20260504172524 | 58 | 0 | 0.0 | 6.0 | 0.00 | 0.00 | 0.00 | 33 | 1008.5 |
| 20260504172403 | 58 | 0 | 0.0 | 6.0 | 0.00 | 0.00 | 0.00 | 33 | 1008.5 |
| 20260504172304 | 58 | 0 | 0.0 | 6.0 | 0.00 | 0.00 | 0.00 | 33 | 1008.6 |
| 20260504172203 | 58 | 0 | 0.0 | 6.0 | 0.00 | 0.00 | 0.00 | 33 | 1008.6 |
| 20260504172103 | 58 | 0 | 0.0 | 6.0 | 0.00 | 0.00 | 0.00 | 33 | 1008.6 |
| 20260504172003 | 58 | 0 | 0.0 | 6.0 | 0.00 | 0.00 | 0.00 | 33 | 1008.7 |
| 20260504171903 | 58 | 0 | 0.0 | 6.0 | 0.00 | 0.00 | 0.00 | 33 | 1008.6 |
| 20260504171803 | 58 | 0 | 0.0 | 6.0 | 0.00 | 0.00 | 0.00 | 33 | 1008.6 |
| 20260504171703 | 58 | 0 | 0.0 | 6.0 | 0.00 | 0.00 | 0.00 | 33 | 1008.7 |
| 20260504171603 | 58 | 0 | 0.0 | 6.0 | 0.00 | 0.00 | 0.00 | 33 | 1008.7 |
| 20260504171504 | 58 | 0 | 0.0 | 6.0 | 0.00 | 0.00 | 0.00 | 33 | 1008.8 |
| 20260504171404 | 58 | 0 | 0.0 | 6.0 | 0.00 | 0.00 | 0.00 | 33 | 1008.8 |
| 20260504171304 | 58 | 0 | 0.0 | 6.0 | 0.00 | 0.00 | 0.00 | 33 | 1008.8 |
| 20260504171203 | 58 | 0 | 0.0 | 6.0 | 0.00 | 0.00 | 0.00 | 33 | 1008.8 |